M I D A S
Marine Information and Data Acquisition System
Tripno 1666 of the Zeeleeuw from 2009-03-27 07:38:46 to 2009-03-27 11:29:19
Back to CruiseResearch ActivitiesStationsMapUnderway DataData graphs

EquipmentUnitsComment
TimeDGPSUTC
LatitudeDGPSDM.mWGS84
LongitudeDGPSDM.mWGS84
TemperatureSBE03/SBE38deg celciusITS90
ConductivitySBE21S/mITS90
SalinitySBE21 Practical Salinity Units
ChlorophylAChelsea fluorimeterg/lCalibrated in Aceton
Missing or incorrect values are displayed as -999
Sea surface data collected by the RV Zeeleeuw from 2009-03-27 07:39:53 to 2009-03-27 11:41:38
                                                                                    Next 1000 lines
Time Latitude Longitude Temperature Conductivity Salinity ChlorophylA
2009-03-27 07:40:02 51°13.663 2°55.957 -999 0.080387 0.44298 -1.035392
2009-03-27 07:40:08 51°13.663 2°55.953 -999 0.093869 0.520281 -1.035392
2009-03-27 07:40:13 51°13.664 2°55.949 -999 0.095825 0.531636 -1.035392
2009-03-27 07:40:18 51°13.665 2°55.944 -999 0.095825 0.531636 -1.035392
2009-03-27 07:40:24 51°13.667 2°55.938 -999 0.092428 0.51205 -1.070216
2009-03-27 07:40:30 51°13.669 2°55.932 -999 0.086048 0.475359 -1.035392
2009-03-27 07:40:35 51°13.671 2°55.926 -999 0.09037 0.500176 -1.035392
2009-03-27 07:40:41 51°13.673 2°55.918 -999 0.092531 0.512661 -1.035392
2009-03-27 07:40:46 51°13.675 2°55.911 -999 0.092428 0.512105 -1.035392
2009-03-27 07:40:51 51°13.677 2°55.904 -999 0.092428 0.512105 -1.035392
2009-03-27 07:40:57 51°13.679 2°55.896 -999 0.09356 0.518661 -1.035392
2009-03-27 07:41:02 51°13.681 2°55.888 -999 0.092634 0.513336 -1.035392
2009-03-27 07:41:06 51°13.682 2°55.882 -999 0.092737 0.513929 -1.035392
2009-03-27 07:41:12 51°13.684 2°55.873 -999 0.093149 0.516299 -1.035392
2009-03-27 07:41:17 51°13.685 2°55.865 -999 0.093355 0.517494 -1.035392
2009-03-27 07:41:22 51°13.687 2°55.858 -999 0.093355 0.517494 -1.035392
2009-03-27 07:41:27 51°13.688 2°55.85 -999 0.094075 0.521672 -1.035392
2009-03-27 07:41:32 51°13.689 2°55.843 -999 0.093869 0.520505 -1.035392
2009-03-27 07:41:37 51°13.69 2°55.836 -999 0.093972 0.521098 -1.035392
2009-03-27 07:41:42 51°13.691 2°55.828 -999 0.092017 0.509809 -1.035392
2009-03-27 07:41:47 51°13.691 2°55.821 -999 0.09459 0.524648 -1.035392
2009-03-27 07:41:52 51°13.692 2°55.814 -999 0.09459 0.524648 -1.035392
2009-03-27 07:41:57 51°13.692 2°55.808 -999 0.094075 0.521663 -1.035392
2009-03-27 07:42:02 51°13.693 2°55.801 -999 0.094281 0.522849 -1.035392
2009-03-27 07:42:06 51°13.694 2°55.797 -999 0.094178 0.522256 -1.035392
2009-03-27 07:42:12 51°13.694 2°55.789 -999 0.093972 0.52107 -1.035392
2009-03-27 07:42:17 51°13.695 2°55.784 -999 0.09459 0.524648 -1.035392
2009-03-27 07:42:22 51°13.695 2°55.779 -999 0.09459 0.524648 -1.035392
2009-03-27 07:42:26 51°13.695 2°55.775 -999 0.095516 0.530017 -1.035392
2009-03-27 07:42:31 51°13.694 2°55.771 -999 0.094795 0.525862 -1.035392
2009-03-27 07:42:36 51°13.694 2°55.768 -999 0.094693 0.525269 -1.035392
2009-03-27 07:42:41 51°13.694 2°55.766 -999 0.102205 0.568772 -1.035392
2009-03-27 07:42:45 51°13.695 2°55.765 -999 0.102205 0.568813 -1.035392
2009-03-27 07:42:50 51°13.695 2°55.765 -999 0.102205 0.568813 -1.035392
2009-03-27 07:42:55 51°13.696 2°55.766 -999 0.101794 0.566429 -1.035392
2009-03-27 07:43:00 51°13.697 2°55.767 -999 0.098706 0.548467 -1.035392
2009-03-27 07:43:05 51°13.698 2°55.768 -999 0.098192 0.545415 -1.035392
2009-03-27 07:43:10 51°13.699 2°55.769 -999 0.094898 0.526314 -1.035392
2009-03-27 07:43:15 51°13.7 2°55.771 -999 0.094693 0.525062 -1.035392
2009-03-27 07:43:20 51°13.701 2°55.772 -999 0.094693 0.525062 -1.035392
2009-03-27 07:43:26 51°13.703 2°55.772 -999 0.090782 0.50247 -1.035392
2009-03-27 07:43:31 51°13.703 2°55.772 -999 0.092325 0.511302 -1.035392
2009-03-27 07:43:35 51°13.704 2°55.772 -999 0.092943 0.514865 -1.035392
2009-03-27 07:43:41 51°13.704 2°55.771 -999 0.090885 0.503008 -1.035392
2009-03-27 07:43:46 51°13.704 2°55.77 -999 0.09109 0.504218 -1.035392
2009-03-27 07:43:51 51°13.703 2°55.769 -999 0.09109 0.504218 -1.035392
2009-03-27 07:43:55 51°13.702 2°55.768 -999 0.091502 0.506621 -1.070216
2009-03-27 07:44:00 51°13.701 2°55.767 -999 0.092634 0.51318 -1.035392
2009-03-27 07:44:05 51°13.7 2°55.766 -999 0.093046 0.515577 -1.035392
2009-03-27 07:44:11 51°13.699 2°55.765 -999 0.094693 0.525109 -1.035392
2009-03-27 07:44:16 51°13.699 2°55.764 -999 0.094693 0.525109 -1.035392
2009-03-27 07:44:22 51°13.699 2°55.764 -999 0.094693 0.525109 -1.035392
2009-03-27 07:44:26 51°13.699 2°55.763 -999 0.095001 0.526879 -1.070216
2009-03-27 07:44:31 51°13.7 2°55.763 -999 0.095104 0.527472 -1.035392
2009-03-27 07:44:36 51°13.701 2°55.762 -999 0.095413 0.529262 -1.035392
2009-03-27 07:44:41 51°13.702 2°55.762 -999 0.097265 0.539988 -1.070216
2009-03-27 07:44:46 51°13.704 2°55.761 -999 0.097265 0.540007 -1.035392
2009-03-27 07:44:50 51°13.705 2°55.76 -999 0.097265 0.540007 -1.035392
2009-03-27 07:44:55 51°13.707 2°55.759 -999 0.097265 0.540007 -1.035392
2009-03-27 07:45:01 51°13.71 2°55.757 -999 0.096751 0.537028 -1.070216
2009-03-27 07:45:06 51°13.713 2°55.754 -999 0.095413 0.529281 -1.035392
2009-03-27 07:45:11 51°13.715 2°55.751 -999 0.094795 0.525683 -1.070216
2009-03-27 07:45:16 51°13.719 2°55.748 -999 0.094795 0.525683 -1.070216
2009-03-27 07:45:21 51°13.722 2°55.744 -999 0.093458 0.51792 -1.070216
2009-03-27 07:45:26 51°13.726 2°55.74 -999 0.092737 0.513726 -1.070216
2009-03-27 07:45:31 51°13.729 2°55.736 -999 0.092943 0.514883 -1.070216
2009-03-27 07:45:35 51°13.733 2°55.732 -999 0.094898 0.526135 -1.070216
2009-03-27 07:45:40 51°13.737 2°55.727 -999 0.095207 0.527952 -1.070216
2009-03-27 07:45:45 51°13.743 2°55.722 -999 0.088826 0.491238 -1.035392
2009-03-27 07:45:50 51°13.749 2°55.715 -999 0.088826 0.491238 -1.035392
2009-03-27 07:45:54 51°13.754 2°55.709 -999 0.083681 0.461672 -1.070216
2009-03-27 07:45:59 51°13.761 2°55.702 -999 0.081211 0.447523 -1.070216
2009-03-27 07:46:04 51°13.769 2°55.694 -999 0.077094 0.424027 -1.035392
2009-03-27 07:46:09 51°13.777 2°55.686 -999 0.079976 0.440434 -1.035392
2009-03-27 07:46:14 51°13.785 2°55.677 -999 0.079564 0.438109 -1.070216
2009-03-27 07:46:19 51°13.794 2°55.669 -999 0.079564 0.438109 -1.070216
2009-03-27 07:46:23 51°13.801 2°55.662 -999 0.074521 0.409377 -1.035392
2009-03-27 07:46:29 51°13.813 2°55.652 -999 0.073081 0.40118 -1.035392
2009-03-27 07:46:33 51°13.821 2°55.645 -999 0.070405 0.38598 -1.070216
2009-03-27 07:46:38 51°13.83 2°55.637 -999 0.078535 0.432188 -1.070216
2009-03-27 07:46:43 51°13.84 2°55.629 -999 0.073286 0.402341 -1.070216
2009-03-27 07:46:48 51°13.851 2°55.622 -999 0.073286 0.402341 -1.070216
2009-03-27 07:46:53 51°13.861 2°55.613 -999 0.075448 0.414635 -1.035392
2009-03-27 07:46:58 51°13.872 2°55.605 -999 0.078226 0.430474 -1.035392
2009-03-27 07:47:02 51°13.881 2°55.599 -999 0.067729 0.370874 -1.035392
2009-03-27 07:47:08 51°13.894 2°55.589 -999 0.07802 0.429279 -1.035392
2009-03-27 07:47:13 51°13.905 2°55.58 -999 0.075345 0.414087 -1.035392
2009-03-27 07:47:18 51°13.916 2°55.572 -999 0.075345 0.414087 -1.035392
2009-03-27 07:47:24 51°13.93 2°55.561 -999 0.066083 0.361579 -1.070216
2009-03-27 07:47:30 51°13.943 2°55.551 -999 0.075036 0.412309 -1.035392
2009-03-27 07:47:35 51°13.955 2°55.543 -999 0.076168 0.418777 -1.070216
2009-03-27 07:47:41 51°13.969 2°55.533 -999 0.070302 0.385459 -1.070216
2009-03-27 07:47:45 51°13.978 2°55.526 -999 0.076888 0.422885 -1.070216
2009-03-27 07:47:50 51°13.99 2°55.518 -999 0.076888 0.422885 -1.070216
2009-03-27 07:47:55 51°14.002 2°55.51 -999 0.070405 0.386056 -1.070216
2009-03-27 07:48:00 51°14.014 2°55.501 -999 0.067935 0.372051 -1.070216
2009-03-27 07:48:05 51°14.025 2°55.493 -999 0.075036 0.412331 -1.035392
2009-03-27 07:48:10 51°14.037 2°55.485 -999 0.075345 0.414116 -1.035392
2009-03-27 07:48:14 51°14.047 2°55.478 -999 0.070199 0.384897 -1.035392
2009-03-27 07:48:19 51°14.059 2°55.469 -999 0.070199 0.384897 -1.035392
2009-03-27 07:48:24 51°14.071 2°55.461 -999 0.070199 0.38489 -1.035392
2009-03-27 07:48:29 51°14.082 2°55.452 -999 0.068655 0.376151 -1.035392
2009-03-27 07:48:34 51°14.094 2°55.443 -999 0.067832 0.371482 -1.035392
2009-03-27 07:48:39 51°14.106 2°55.434 -999 0.070405 0.38607 -1.035392
2009-03-27 07:48:44 51°14.117 2°55.425 -999 0.063613 0.34767 -1.070216
2009-03-27 07:48:49 51°14.129 2°55.416 -999 0.063613 0.34767 -1.070216
2009-03-27 07:48:54 51°14.141 2°55.407 -999 0.073081 0.401251 -1.035392
2009-03-27 07:48:59 51°14.152 2°55.397 -999 0.071743 0.393695 -1.035392
2009-03-27 07:49:03 51°14.161 2°55.389 -999 0.074418 0.408902 -1.035392
2009-03-27 07:49:09 51°14.174 2°55.377 -999 0.072875 0.400147 -1.035392
2009-03-27 07:49:13 51°14.183 2°55.368 -999 0.075756 0.416546 -1.035392
2009-03-27 07:49:18 51°14.193 2°55.357 -999 0.075756 0.416546 -1.035392
2009-03-27 07:49:23 51°14.203 2°55.345 -999 0.064951 0.355293 -1.070216
2009-03-27 07:49:28 51°14.213 2°55.332 -999 0.06423 0.351199 -1.070216
2009-03-27 07:49:33 51°14.223 2°55.32 -999 0.059496 0.324527 -1.070216
2009-03-27 07:49:38 51°14.233 2°55.306 -999 0.058879 0.321062 -1.035392
2009-03-27 07:49:42 51°14.241 2°55.295 -999 0.056924 0.310081 -1.035392
2009-03-27 07:49:48 51°14.252 2°55.279 -999 0.056924 0.310081 -1.035392
2009-03-27 07:49:53 51°14.261 2°55.265 -999 0.05466 0.297407 -1.070216
2009-03-27 07:49:58 51°14.271 2°55.25 -999 0.053528 0.291081 -1.070216
2009-03-27 07:50:03 51°14.28 2°55.236 -999 0.057438 0.312946 -1.035392
2009-03-27 07:50:08 51°14.289 2°55.221 -999 0.057953 0.315896 -1.035392
2009-03-27 07:50:13 51°14.298 2°55.206 -999 0.053219 0.289415 -1.035392
2009-03-27 07:50:18 51°14.307 2°55.191 -999 0.053219 0.289415 -1.035392
2009-03-27 07:50:23 51°14.316 2°55.176 -999 0.049 0.265908 -1.035392
2009-03-27 07:50:28 51°14.325 2°55.16 -999 0.055483 0.302035 -1.035392
2009-03-27 07:50:33 51°14.334 2°55.145 -999 0.050132 0.272229 -1.070216
2009-03-27 07:50:38 51°14.343 2°55.129 -999 0.052601 0.28594 -1.035392
2009-03-27 07:50:43 51°14.352 2°55.114 -999 0.050955 0.276777 -1.035392
2009-03-27 07:50:48 51°14.361 2°55.099 -999 0.050955 0.276777 -1.035392
2009-03-27 07:50:53 51°14.37 2°55.083 -999 0.048382 0.262425 -1.035392
2009-03-27 07:50:58 51°14.379 2°55.068 -999 0.051675 0.280759 -1.035392
2009-03-27 07:51:03 51°14.388 2°55.053 -999 0.054763 0.298234 -1.035392
2009-03-27 07:51:07 51°14.394 2°55.04 -999 0.048794 0.264687 -1.035392
2009-03-27 07:51:13 51°14.404 2°55.021 -999 0.044266 0.239545 -1.035392
2009-03-27 07:51:18 51°14.411 2°55.005 -999 0.044266 0.239545 -1.035392
2009-03-27 07:51:23 51°14.416 2°54.987 -999 0.045707 0.24749 -1.035392
2009-03-27 07:51:28 51°14.421 2°54.97 -999 0.042516 0.229931 -1.035392
2009-03-27 07:51:33 51°14.425 2°54.951 -999 0.046221 0.250816 -1.035392
2009-03-27 07:51:38 51°14.428 2°54.932 -999 0.041076 0.223017 -1.035392
2009-03-27 07:51:43 51°14.43 2°54.913 -999 0.039018 0.211717 -1.035392
2009-03-27 07:51:48 51°14.43 2°54.894 -999 0.039018 0.211717 -1.035392
2009-03-27 07:51:53 51°14.43 2°54.874 -999 0.043031 0.233929 -1.035392
2009-03-27 07:51:58 51°14.43 2°54.854 -999 0.044163 0.239991 -1.035392
2009-03-27 07:52:03 51°14.428 2°54.833 -999 0.043031 0.233746 -1.035392
2009-03-27 07:52:07 51°14.426 2°54.817 -999 0.038503 0.208985 -1.035392
2009-03-27 07:52:13 51°14.421 2°54.793 -999 0.038503 0.208985 -1.035392
2009-03-27 07:52:18 51°14.417 2°54.773 -999 0.041179 0.223559 -1.070216
2009-03-27 07:52:23 51°14.413 2°54.753 -999 0.043957 0.239287 -1.035392
2009-03-27 07:52:28 51°14.408 2°54.732 -999 0.04406 0.240119 -1.035392
2009-03-27 07:52:33 51°14.404 2°54.711 -999 0.047353 0.258604 -1.035392
2009-03-27 07:52:38 51°14.4 2°54.69 -999 0.047971 0.262157 -1.035392
2009-03-27 07:52:43 51°14.395 2°54.668 -999 0.043648 0.23795 -1.035392
2009-03-27 07:52:48 51°14.391 2°54.647 -999 0.043648 0.23795 -1.035392
2009-03-27 07:52:53 51°14.386 2°54.625 -999 0.045604 0.248792 -1.070216
2009-03-27 07:52:58 51°14.382 2°54.603 -999 0.044575 0.243071 -1.035392
2009-03-27 07:53:03 51°14.377 2°54.58 -999 0.045707 0.249326 -1.035392
2009-03-27 07:53:08 51°14.373 2°54.558 -999 0.04334 0.236642 -1.035392
2009-03-27 07:53:13 51°14.368 2°54.535 -999 0.047765 0.261351 -1.035392
2009-03-27 07:53:18 51°14.362 2°54.512 -999 0.047765 0.261351 -1.035392
2009-03-27 07:53:23 51°14.357 2°54.488 -999 0.04581 0.250401 -1.035392
2009-03-27 07:53:27 51°14.352 2°54.469 -999 0.045192 0.247017 -1.035392
2009-03-27 07:53:33 51°14.346 2°54.44 -999 0.046221 0.252799 -1.035392
2009-03-27 07:53:38 51°14.34 2°54.415 -999 0.04725 0.25853 -1.035392
2009-03-27 07:53:43 51°14.334 2°54.391 -999 0.05044 0.276561 -1.035392
2009-03-27 07:53:48 51°14.327 2°54.368 -999 0.05044 0.276561 -1.035392
2009-03-27 07:53:53 51°14.32 2°54.343 -999 0.051984 0.285264 -1.035392
2009-03-27 07:53:58 51°14.314 2°54.32 -999 0.05044 0.276522 -1.035392
2009-03-27 07:54:03 51°14.307 2°54.296 -999 0.046839 0.256384 -1.035392
2009-03-27 07:54:08 51°14.3 2°54.272 -999 0.046015 0.251812 -1.035392
2009-03-27 07:54:13 51°14.293 2°54.248 -999 0.051161 0.280656 -1.070216
2009-03-27 07:54:18 51°14.285 2°54.224 -999 0.051161 0.280656 -1.070216
2009-03-27 07:54:22 51°14.28 2°54.205 -999 0.046324 0.253499 -1.035392
2009-03-27 07:54:28 51°14.271 2°54.177 -999 0.043031 0.235125 -1.035392
2009-03-27 07:54:33 51°14.264 2°54.153 -999 0.048176 0.263908 -1.035392
2009-03-27 07:54:38 51°14.257 2°54.129 -999 0.042414 0.231712 -1.035392
2009-03-27 07:54:43 51°14.249 2°54.105 -999 0.04653 0.254745 -1.035392
2009-03-27 07:54:47 51°14.243 2°54.087 -999 0.04653 0.254745 -1.035392
2009-03-27 07:54:53 51°14.234 2°54.058 -999 0.047765 0.261618 -1.035392
2009-03-27 07:54:58 51°14.226 2°54.035 -999 0.047765 0.261641 -1.035392
2009-03-27 07:55:03 51°14.218 2°54.011 -999 0.043546 0.238056 -1.035392
2009-03-27 07:55:08 51°14.211 2°53.988 -999 0.045604 0.249593 -1.035392
2009-03-27 07:55:13 51°14.203 2°53.964 -999 0.051984 0.285381 -1.035392
2009-03-27 07:55:18 51°14.195 2°53.94 -999 0.051984 0.285381 -1.035392
2009-03-27 07:55:23 51°14.187 2°53.917 -999 0.057541 0.31684 -1.035392
2009-03-27 07:55:28 51°14.18 2°53.894 -999 0.053939 0.296499 -1.035392
2009-03-27 07:55:33 51°14.172 2°53.87 -999 0.058364 0.321552 -1.035392
2009-03-27 07:55:38 51°14.165 2°53.847 -999 0.062584 0.345538 -1.035392
2009-03-27 07:55:43 51°14.158 2°53.822 -999 0.056512 0.31108 -1.035392
2009-03-27 07:55:48 51°14.15 2°53.799 -999 0.056512 0.31108 -1.035392
2009-03-27 07:55:53 51°14.142 2°53.776 -999 0.058262 0.320957 -1.035392
2009-03-27 07:55:58 51°14.135 2°53.753 -999 0.049617 0.272162 -1.035392
2009-03-27 07:56:03 51°14.127 2°53.729 -999 0.058982 0.325071 -1.035392
2009-03-27 07:56:08 51°14.119 2°53.706 -999 0.052807 0.290138 -1.000568
2009-03-27 07:56:13 51°14.112 2°53.682 -999 0.047147 0.258277 -1.035392
2009-03-27 07:56:18 51°14.105 2°53.658 -999 0.047147 0.258277 -1.035392
2009-03-27 07:56:23 51°14.097 2°53.634 -999 0.059496 0.327985 -1.035392
2009-03-27 07:56:28 51°14.09 2°53.611 -999 0.050955 0.279692 -1.000568
2009-03-27 07:56:33 51°14.082 2°53.587 -999 0.057747 0.318063 -1.000568
2009-03-27 07:56:38 51°14.074 2°53.564 -999 0.04972 0.27277 -1.000568
2009-03-27 07:56:43 51°14.067 2°53.54 -999 0.044369 0.242767 -1.000568
2009-03-27 07:56:47 51°14.061 2°53.521 -999 0.044369 0.242767 -1.000568
2009-03-27 07:56:53 51°14.052 2°53.492 -999 0.062995 0.347937 -1.000568
2009-03-27 07:56:58 51°14.045 2°53.468 -999 0.054763 0.301186 -1.035392
2009-03-27 07:57:03 51°14.037 2°53.444 -999 0.048485 0.265837 -1.000568
2009-03-27 07:57:08 51°14.03 2°53.42 -999 0.046942 0.257205 -1.035392
2009-03-27 07:57:13 51°14.022 2°53.396 -999 0.055689 0.306461 -1.035392
2009-03-27 07:57:18 51°14.015 2°53.372 -999 0.055689 0.306461 -1.035392
2009-03-27 07:57:23 51°14.007 2°53.349 -999 0.05219 0.286698 -1.035392
2009-03-27 07:57:28 51°13.999 2°53.325 -999 0.054145 0.29773 -1.000568
2009-03-27 07:57:33 51°13.992 2°53.301 -999 0.046736 0.256083 -1.000568
2009-03-27 07:57:38 51°13.984 2°53.277 -999 0.056924 0.313523 -1.000568
2009-03-27 07:57:43 51°13.976 2°53.253 -999 0.056924 0.313523 -1.000568
2009-03-27 07:57:48 51°13.968 2°53.229 -999 0.052602 0.289096 -1.035392
2009-03-27 07:57:53 51°13.961 2°53.205 -999 0.060011 0.33106 -1.035392
2009-03-27 07:57:58 51°13.953 2°53.181 -999 0.060937 0.336306 -1.000568
2009-03-27 07:58:03 51°13.945 2°53.156 -999 0.053734 0.295485 -1.035392
2009-03-27 07:58:07 51°13.939 2°53.137 -999 0.054248 0.298386 -1.035392
2009-03-27 07:58:13 51°13.929 2°53.108 -999 0.048485 0.265917 -1.035392
2009-03-27 07:58:18 51°13.922 2°53.084 -999 0.048485 0.265917 -1.035392
2009-03-27 07:58:23 51°13.914 2°53.06 -999 0.055689 0.30657 -1.000568
2009-03-27 07:58:28 51°13.907 2°53.035 -999 0.053734 0.295522 -1.000568
2009-03-27 07:58:33 51°13.899 2°53.01 -999 0.054248 0.298444 -1.000568
2009-03-27 07:58:38 51°13.892 2°52.986 -999 0.052293 0.28739 -1.000568
2009-03-27 07:58:43 51°13.884 2°52.962 -999 0.057438 0.316489 -1.035392
2009-03-27 07:58:48 51°13.876 2°52.938 -999 0.057438 0.316489 -1.035392
2009-03-27 07:58:53 51°13.869 2°52.914 -999 0.057747 0.318251 -1.000568
2009-03-27 07:58:58 51°13.861 2°52.89 -999 0.05538 0.304856 -1.000568
2009-03-27 07:59:02 51°13.855 2°52.87 -999 0.056409 0.310698 -1.035392
2009-03-27 07:59:08 51°13.845 2°52.842 -999 0.05147 0.282769 -1.035392
2009-03-27 07:59:13 51°13.838 2°52.818 -999 0.061349 0.338726 -1.035392
2009-03-27 07:59:18 51°13.83 2°52.794 -999 0.061349 0.338726 -1.035392
2009-03-27 07:59:23 51°13.822 2°52.77 -999 0.058056 0.320042 -1.000568
2009-03-27 07:59:27 51°13.816 2°52.75 -999 0.053528 0.294406 -1.035392
2009-03-27 07:59:33 51°13.806 2°52.722 -999 0.056203 0.309499 -1.035392
2009-03-27 07:59:38 51°13.798 2°52.698 -999 0.059496 0.328178 -1.035392
2009-03-27 07:59:43 51°13.791 2°52.675 -999 0.058159 0.320579 -1.035392
2009-03-27 07:59:48 51°13.783 2°52.651 -999 0.058159 0.320579 -1.035392
2009-03-27 07:59:53 51°13.775 2°52.627 -999 0.054454 0.299576 -1.035392
2009-03-27 07:59:58 51°13.768 2°52.603 -999 0.056512 0.31123 -1.035392
2009-03-27 08:00:03 51°13.76 2°52.58 -999 0.06104 0.336939 -1.035392
2009-03-27 08:00:08 51°13.752 2°52.556 -999 0.058776 0.324135 -1.000568
2009-03-27 08:00:13 51°13.744 2°52.532 -999 0.049 0.268907 -1.035392
2009-03-27 08:00:18 51°13.737 2°52.508 -999 0.049 0.268907 -1.035392
2009-03-27 08:00:23 51°13.729 2°52.484 -999 0.060526 0.334103 -1.035392
2009-03-27 08:00:28 51°13.722 2°52.459 -999 0.058776 0.324152 -1.035392
2009-03-27 08:00:33 51°13.714 2°52.435 -999 0.057027 0.314212 -1.035392
2009-03-27 08:00:38 51°13.706 2°52.411 -999 0.048074 0.263703 -1.035392
2009-03-27 08:00:43 51°13.699 2°52.387 -999 0.053013 0.291527 -1.035392
2009-03-27 08:00:48 51°13.693 2°52.362 -999 0.053013 0.291527 -1.035392
2009-03-27 08:00:53 51°13.685 2°52.338 -999 0.055998 0.308427 -1.035392
2009-03-27 08:00:58 51°13.677 2°52.314 -999 0.052293 0.287467 -1.035392
2009-03-27 08:01:03 51°13.67 2°52.29 -999 0.057232 0.315401 -1.035392
2009-03-27 08:01:08 51°13.662 2°52.266 -999 0.06104 0.337066 -1.035392
2009-03-27 08:01:13 51°13.655 2°52.242 -999 0.06104 0.337066 -1.035392
2009-03-27 08:01:18 51°13.647 2°52.218 -999 0.048588 0.266622 -1.035392
2009-03-27 08:01:23 51°13.64 2°52.193 -999 0.057335 0.316002 -1.000568
2009-03-27 08:01:27 51°13.634 2°52.174 -999 0.049514 0.271839 -1.035392
2009-03-27 08:01:33 51°13.625 2°52.145 -999 0.053939 0.296832 -1.035392
2009-03-27 08:01:38 51°13.618 2°52.12 -999 0.064127 0.354705 -1.035392
2009-03-27 08:01:43 51°13.611 2°52.095 -999 0.056512 0.311403 -1.035392
2009-03-27 08:01:48 51°13.603 2°52.07 -999 0.056512 0.311403 -1.035392
2009-03-27 08:01:53 51°13.596 2°52.046 -999 0.05538 0.305003 -1.000568
2009-03-27 08:01:58 51°13.589 2°52.021 -999 0.056615 0.311964 -1.035392
2009-03-27 08:02:03 51°13.581 2°51.996 -999 0.056306 0.31022 -1.035392
2009-03-27 08:02:08 51°13.574 2°51.972 -999 0.057953 0.319561 -1.035392
2009-03-27 08:02:13 51°13.566 2°51.948 -999 0.054968 0.302657 -1.035392
2009-03-27 08:02:18 51°13.559 2°51.924 -999 0.054968 0.302657 -1.035392
2009-03-27 08:02:23 51°13.551 2°51.9 -999 0.052499 0.288695 -1.035392
2009-03-27 08:02:28 51°13.544 2°51.876 -999 0.055792 0.307306 -1.035392
2009-03-27 08:02:33 51°13.537 2°51.852 -999 0.054351 0.299191 -1.035392
2009-03-27 08:02:38 51°13.53 2°51.828 -999 0.054042 0.297472 -1.035392
2009-03-27 08:02:43 51°13.523 2°51.805 -999 0.067832 0.375956 -1.035392
2009-03-27 08:02:47 51°13.517 2°51.787 -999 0.067832 0.375956 -1.035392
2009-03-27 08:02:53 51°13.508 2°51.761 -999 0.061246 0.338365 -1.035392
2009-03-27 08:02:58 51°13.499 2°51.742 -999 0.053939 0.296927 -1.035392
2009-03-27 08:03:03 51°13.488 2°51.724 -999 0.048794 0.267878 -1.035392
2009-03-27 08:03:08 51°13.478 2°51.708 -999 0.063407 0.350659 -1.035392
2009-03-27 08:03:13 51°13.467 2°51.691 -999 0.066083 0.365916 -1.035392
2009-03-27 08:03:18 51°13.456 2°51.675 -999 0.066083 0.365916 -1.035392
2009-03-27 08:03:23 51°13.445 2°51.66 -999 0.062069 0.34304 -1.035392
2009-03-27 08:03:28 51°13.433 2°51.646 -999 0.063098 0.348943 -1.000568
2009-03-27 08:03:33 51°13.421 2°51.633 -999 0.062172 0.343608 -1.035392
2009-03-27 08:03:38 51°13.41 2°51.62 -999 0.052087 0.286449 -1.035392
2009-03-27 08:03:42 51°13.402 2°51.612 -999 0.062275 0.344244 -1.035392
2009-03-27 08:03:48 51°13.391 2°51.599 -999 0.062275 0.344244 -1.035392
2009-03-27 08:03:53 51°13.383 2°51.587 -999 0.06351 0.351309 -1.000568
2009-03-27 08:03:58 51°13.376 2°51.576 -999 0.05857 0.323198 -1.035392
2009-03-27 08:04:03 51°13.37 2°51.565 -999 0.068861 0.381911 -1.035392
2009-03-27 08:04:07 51°13.365 2°51.557 -999 0.063613 0.351877 -1.035392
2009-03-27 08:04:13 51°13.359 2°51.544 -999 0.067832 0.37599 -1.035392
2009-03-27 08:04:18 51°13.355 2°51.533 -999 0.067832 0.37599 -1.035392
2009-03-27 08:04:23 51°13.352 2°51.523 -999 0.082137 0.458354 -1.000568
2009-03-27 08:04:28 51°13.349 2°51.514 -999 0.070405 0.390769 -1.035392
2009-03-27 08:04:33 51°13.347 2°51.504 -999 0.067729 0.375448 -1.035392
2009-03-27 08:04:38 51°13.346 2°51.496 -999 0.076477 0.425745 -1.035392
2009-03-27 08:04:43 51°13.345 2°51.487 -999 0.076477 0.425752 -1.035392
2009-03-27 08:04:48 51°13.344 2°51.479 -999 0.076477 0.425752 -1.035392
2009-03-27 08:04:53 51°13.343 2°51.471 -999 0.06104 0.337302 -1.000568
2009-03-27 08:04:58 51°13.343 2°51.464 -999 0.055483 0.305754 -1.000568
2009-03-27 08:05:02 51°13.343 2°51.458 -999 0.057027 0.314465 -1.035392
2009-03-27 08:05:08 51°13.343 2°51.451 -999 0.060114 0.332025 -1.035392
2009-03-27 08:05:13 51°13.344 2°51.446 -999 0.061452 0.339634 -1.035392
2009-03-27 08:05:18 51°13.344 2°51.442 -999 0.061452 0.339634 -1.035392
2009-03-27 08:05:23 51°13.344 2°51.438 -999 0.061658 0.340782 -1.035392
2009-03-27 08:05:28 51°13.345 2°51.435 -999 0.045912 0.251773 -1.035392
2009-03-27 08:05:33 51°13.345 2°51.432 -999 0.042208 0.23106 -1.000568
2009-03-27 08:05:38 51°13.345 2°51.43 -999 0.042002 0.229907 -0.861272
2009-03-27 08:05:43 51°13.345 2°51.429 -999 0.040458 0.221321 -0.965744
2009-03-27 08:05:48 51°13.346 2°51.428 -999 0.040458 0.221321 -0.965744
2009-03-27 08:05:53 51°13.346 2°51.426 -999 0.042825 0.234528 -1.000568
2009-03-27 08:05:58 51°13.346 2°51.425 -999 0.039429 0.215608 -1.035392
2009-03-27 08:06:03 51°13.345 2°51.425 -999 0.043134 0.236274 -1.070216
2009-03-27 08:06:08 51°13.345 2°51.424 -999 0.045192 0.24781 -1.070216
2009-03-27 08:06:13 51°13.345 2°51.423 -999 0.043134 0.23627 -1.070216
2009-03-27 08:06:18 51°13.345 2°51.423 -999 0.043134 0.23627 -1.070216
2009-03-27 08:06:23 51°13.344 2°51.423 -999 0.039532 0.216184 -1.070216
2009-03-27 08:06:27 51°13.344 2°51.423 -999 0.040767 0.22308 -1.070216
2009-03-27 08:06:33 51°13.343 2°51.422 -999 0.041384 0.226534 -1.070216
2009-03-27 08:06:38 51°13.343 2°51.422 -999 0.042825 0.23457 -1.070216
2009-03-27 08:06:43 51°13.342 2°51.421 -999 0.040561 0.221909 -1.070216
2009-03-27 08:06:48 51°13.342 2°51.42 -999 0.040561 0.221909 -1.070216
2009-03-27 08:06:53 51°13.341 2°51.42 -999 0.033255 0.181361 -1.070216
2009-03-27 08:06:58 51°13.34 2°51.42 -999 0.033872 0.184744 -1.10504
2009-03-27 08:07:03 51°13.339 2°51.419 -999 0.034181 0.186473 -1.070216
2009-03-27 08:07:08 51°13.339 2°51.419 -999 0.033461 0.182505 -1.10504
2009-03-27 08:07:13 51°13.338 2°51.419 -999 0.033255 0.181367 -1.070216
2009-03-27 08:07:18 51°13.337 2°51.419 -999 0.033255 0.181367 -1.070216
2009-03-27 08:07:23 51°13.336 2°51.419 -999 0.037268 0.203582 -1.070216
2009-03-27 08:07:28 51°13.335 2°51.419 -999 0.061658 0.340904 -1.10504
2009-03-27 08:07:33 51°13.334 2°51.419 -999 0.049617 0.272703 -1.10504
2009-03-27 08:07:38 51°13.333 2°51.419 -999 0.050029 0.274993 -1.10504
2009-03-27 08:07:43 51°13.332 2°51.418 -999 0.047559 0.261082 -1.10504
2009-03-27 08:07:47 51°13.332 2°51.418 -999 0.047559 0.261082 -1.10504
2009-03-27 08:07:53 51°13.331 2°51.417 -999 0.044472 0.243767 -1.10504
2009-03-27 08:07:58 51°13.33 2°51.417 -999 0.04653 0.255317 -1.10504
2009-03-27 08:08:03 51°13.329 2°51.417 -999 0.04478 0.2455 -1.070216
2009-03-27 08:08:08 51°13.328 2°51.417 -999 0.043031 0.235707 -1.070216
2009-03-27 08:08:13 51°13.327 2°51.417 -999 0.043031 0.235707 -1.070216
2009-03-27 08:08:18 51°13.326 2°51.416 -999 0.0384 0.209901 -1.10504
2009-03-27 08:08:23 51°13.325 2°51.417 -999 0.040767 0.223072 -1.070216
2009-03-27 08:08:28 51°13.323 2°51.417 -999 0.041796 0.228795 -1.10504
2009-03-27 08:08:33 51°13.322 2°51.418 -999 0.041179 0.225351 -1.10504
2009-03-27 08:08:38 51°13.321 2°51.417 -999 0.038709 0.21161 -1.10504
2009-03-27 08:08:42 51°13.32 2°51.417 -999 0.039635 0.216764 -1.10504
2009-03-27 08:08:48 51°13.319 2°51.417 -999 0.039635 0.216764 -1.10504
2009-03-27 08:08:53 51°13.318 2°51.417 -999 0.039738 0.21734 -1.10504
2009-03-27 08:08:58 51°13.317 2°51.417 -999 0.042928 0.235141 -1.10504
2009-03-27 08:09:03 51°13.316 2°51.417 -999 0.039635 0.216779 -1.10504
2009-03-27 08:09:07 51°13.315 2°51.417 -999 0.039841 0.217925 -1.10504
2009-03-27 08:09:13 51°13.313 2°51.417 -999 0.040458 0.221352 -1.10504
2009-03-27 08:09:18 51°13.312 2°51.417 -999 0.040458 0.221352 -1.10504
2009-03-27 08:09:23 51°13.311 2°51.417 -999 0.039121 0.213905 -1.10504
2009-03-27 08:09:28 51°13.31 2°51.417 -999 0.041384 0.22651 -1.10504
2009-03-27 08:09:33 51°13.308 2°51.417 -999 0.042105 0.230534 -1.10504
2009-03-27 08:09:38 51°13.307 2°51.418 -999 0.041384 0.226514 -1.10504
2009-03-27 08:09:43 51°13.306 2°51.417 -999 0.040458 0.221352 -1.10504
2009-03-27 08:09:48 51°13.304 2°51.416 -999 0.040458 0.221352 -1.10504
2009-03-27 08:09:53 51°13.303 2°51.417 -999 0.038091 0.208176 -1.10504
2009-03-27 08:09:58 51°13.302 2°51.417 -999 0.039018 0.213322 -1.10504
2009-03-27 08:10:02 51°13.301 2°51.416 -999 0.038194 0.20874 -1.10504
2009-03-27 08:10:08 51°13.3 2°51.416 -999 0.040458 0.221321 -1.10504
2009-03-27 08:10:13 51°13.299 2°51.416 -999 0.039738 0.217302 -1.10504
2009-03-27 08:10:18 51°13.298 2°51.416 -999 0.039738 0.217302 -1.10504
2009-03-27 08:10:23 51°13.297 2°51.416 -999 0.037371 0.204149 -1.10504
2009-03-27 08:10:28 51°13.297 2°51.416 -999 0.038709 0.211584 -1.10504
2009-03-27 08:10:33 51°13.297 2°51.417 -999 0.038091 0.208168 -1.10504
2009-03-27 08:10:38 51°13.298 2°51.417 -999 0.039121 0.213902 -1.10504
2009-03-27 08:10:43 51°13.298 2°51.417 -999 0.038503 0.210481 -1.10504
2009-03-27 08:10:48 51°13.299 2°51.417 -999 0.038503 0.210481 -1.10504
2009-03-27 08:10:53 51°13.3 2°51.416 -999 0.038091 0.20819 -1.10504
2009-03-27 08:10:58 51°13.301 2°51.416 -999 0.037783 0.206469 -1.10504
2009-03-27 08:11:03 51°13.302 2°51.416 -999 0.036651 0.20018 -1.10504
2009-03-27 08:11:08 51°13.303 2°51.415 -999 0.036342 0.198463 -1.10504
2009-03-27 08:11:13 51°13.305 2°51.414 -999 0.035622 0.194475 -1.10504
2009-03-27 08:11:18 51°13.306 2°51.414 -999 0.035622 0.194475 -1.10504
2009-03-27 08:11:23 51°13.307 2°51.413 -999 0.037165 0.203033 -1.10504
2009-03-27 08:11:27 51°13.308 2°51.413 -999 0.036754 0.200757 -1.10504
2009-03-27 08:11:33 51°13.31 2°51.412 -999 0.035622 0.194495 -1.10504
2009-03-27 08:11:38 51°13.312 2°51.411 -999 0.036239 0.197924 -1.10504
2009-03-27 08:11:43 51°13.314 2°51.409 -999 0.034696 0.18939 -1.10504
2009-03-27 08:11:48 51°13.315 2°51.408 -999 0.034696 0.18939 -1.10504
2009-03-27 08:11:53 51°13.317 2°51.407 -999 0.037268 0.203656 -1.10504
2009-03-27 08:11:58 51°13.319 2°51.406 -999 0.036445 0.199098 -1.10504
2009-03-27 08:12:03 51°13.32 2°51.404 -999 0.035725 0.195115 -1.10504
2009-03-27 08:12:08 51°13.322 2°51.403 -999 0.036445 0.199123 -1.10504
2009-03-27 08:12:13 51°13.323 2°51.401 -999 0.036857 0.201412 -1.10504
2009-03-27 08:12:18 51°13.324 2°51.4 -999 0.036857 0.201412 -1.10504
2009-03-27 08:12:23 51°13.326 2°51.399 -999 0.036857 0.201419 -1.10504
2009-03-27 08:12:28 51°13.327 2°51.398 -999 0.035313 0.192857 -1.10504
2009-03-27 08:12:33 51°13.328 2°51.396 -999 0.035416 0.193427 -1.10504
2009-03-27 08:12:38 51°13.329 2°51.395 -999 0.034901 0.19061 -1.10504
2009-03-27 08:12:43 51°13.331 2°51.393 -999 0.036548 0.199749 -1.10504
2009-03-27 08:12:47 51°13.332 2°51.393 -999 0.036548 0.199749 -1.10504
2009-03-27 08:12:53 51°13.334 2°51.391 -999 0.036857 0.201433 -1.10504
2009-03-27 08:12:58 51°13.335 2°51.391 -999 0.037371 0.204259 -1.10504
2009-03-27 08:13:03 51°13.337 2°51.39 -999 0.03521 0.192274 -1.10504
2009-03-27 08:13:08 51°13.338 2°51.389 -999 0.036548 0.199693 -1.10504
2009-03-27 08:13:13 51°13.339 2°51.387 -999 0.035107 0.191732 -1.10504
2009-03-27 08:13:18 51°13.34 2°51.385 -999 0.035107 0.191732 -1.10504
2009-03-27 08:13:23 51°13.341 2°51.383 -999 0.036445 0.19914 -1.10504
2009-03-27 08:13:28 51°13.342 2°51.382 -999 0.035827 0.195739 -1.10504
2009-03-27 08:13:33 51°13.343 2°51.381 -999 0.036857 0.201433 -1.10504
2009-03-27 08:13:38 51°13.344 2°51.38 -999 0.036033 0.196873 -1.10504
2009-03-27 08:13:42 51°13.344 2°51.378 -999 0.035416 0.19344 -1.10504
2009-03-27 08:13:48 51°13.345 2°51.377 -999 0.035416 0.19344 -1.10504
2009-03-27 08:13:53 51°13.346 2°51.375 -999 0.035416 0.193437 -1.10504
2009-03-27 08:13:58 51°13.347 2°51.374 -999 0.036548 0.199717 -1.10504
2009-03-27 08:14:03 51°13.348 2°51.373 -999 0.035725 0.195163 -1.139864
2009-03-27 08:14:07 51°13.349 2°51.372 -999 0.034593 0.188903 -1.10504
2009-03-27 08:14:13 51°13.35 2°51.371 -999 0.036445 0.199157 -1.10504
2009-03-27 08:14:18 51°13.351 2°51.369 -999 0.036445 0.199157 -1.10504
2009-03-27 08:14:23 51°13.351 2°51.368 -999 0.034798 0.190044 -1.10504
2009-03-27 08:14:28 51°13.352 2°51.367 -999 0.035107 0.191758 -1.10504
2009-03-27 08:14:33 51°13.353 2°51.366 -999 0.035622 0.194616 -1.10504
2009-03-27 08:14:38 51°13.354 2°51.365 -999 0.035622 0.194616 -1.10504
2009-03-27 08:14:43 51°13.356 2°51.365 -999 0.036651 0.200319 -1.10504
2009-03-27 08:14:48 51°13.356 2°51.363 -999 0.036651 0.200319 -1.10504
2009-03-27 08:14:53 51°13.357 2°51.362 -999 0.035725 0.195179 -1.10504
2009-03-27 08:14:58 51°13.357 2°51.361 -999 0.035519 0.194043 -1.10504
2009-03-27 08:15:03 51°13.358 2°51.361 -999 0.03521 0.192344 -1.10504
2009-03-27 08:15:08 51°13.359 2°51.36 -999 0.036342 0.198614 -1.10504
2009-03-27 08:15:13 51°13.36 2°51.358 -999 0.036959 0.202039 -1.10504
2009-03-27 08:15:18 51°13.36 2°51.356 -999 0.036959 0.202039 -1.10504
2009-03-27 08:15:23 51°13.361 2°51.355 -999 0.035827 0.195766 -1.10504
2009-03-27 08:15:28 51°13.362 2°51.353 -999 0.035622 0.194613 -1.10504
2009-03-27 08:15:33 51°13.363 2°51.353 -999 0.033872 0.184929 -1.10504
2009-03-27 08:15:38 51°13.363 2°51.351 -999 0.034593 0.188919 -1.10504
2009-03-27 08:15:43 51°13.365 2°51.35 -999 0.034901 0.190633 -1.10504
2009-03-27 08:15:48 51°13.365 2°51.348 -999 0.034901 0.190633 -1.10504
2009-03-27 08:15:53 51°13.366 2°51.347 -999 0.033461 0.182675 -1.10504
2009-03-27 08:15:58 51°13.367 2°51.345 -999 0.033769 0.184376 -1.10504
2009-03-27 08:16:03 51°13.368 2°51.343 -999 0.033564 0.183237 -1.10504
2009-03-27 08:16:07 51°13.369 2°51.342 -999 0.034798 0.19007 -1.10504
2009-03-27 08:16:13 51°13.37 2°51.341 -999 0.035313 0.192924 -1.10504
2009-03-27 08:16:18 51°13.37 2°51.339 -999 0.035313 0.192924 -1.10504
2009-03-27 08:16:23 51°13.371 2°51.337 -999 0.036136 0.197504 -1.10504
2009-03-27 08:16:28 51°13.372 2°51.336 -999 0.036754 0.200935 -1.10504
2009-03-27 08:16:33 51°13.373 2°51.335 -999 0.036651 0.200424 -1.10504
2009-03-27 08:16:38 51°13.374 2°51.335 -999 0.034901 0.190719 -1.10504
2009-03-27 08:16:43 51°13.374 2°51.333 -999 0.03521 0.192448 -1.10504
2009-03-27 08:16:48 51°13.375 2°51.332 -999 0.03521 0.192448 -1.10504
2009-03-27 08:16:53 51°13.376 2°51.331 -999 0.034387 0.187875 -1.10504
2009-03-27 08:16:58 51°13.376 2°51.33 -999 0.035827 0.195834 -1.139864
2009-03-27 08:17:03 51°13.377 2°51.329 -999 0.03521 0.192424 -1.10504
2009-03-27 08:17:08 51°13.378 2°51.328 -999 0.034901 0.190742 -1.10504
2009-03-27 08:17:13 51°13.379 2°51.326 -999 0.034798 0.190215 -1.10504
2009-03-27 08:17:18 51°13.379 2°51.325 -999 0.034798 0.190215 -1.10504
2009-03-27 08:17:23 51°13.38 2°51.323 -999 0.03521 0.192531 -1.10504
2009-03-27 08:17:27 51°13.381 2°51.322 -999 0.034798 0.190261 -1.10504
2009-03-27 08:17:33 51°13.382 2°51.32 -999 0.035827 0.19595 -1.10504
2009-03-27 08:17:38 51°13.383 2°51.319 -999 0.034387 0.18795 -1.10504
2009-03-27 08:17:43 51°13.384 2°51.317 -999 0.035622 0.194782 -1.10504
2009-03-27 08:17:48 51°13.385 2°51.316 -999 0.035622 0.194782 -1.10504
2009-03-27 08:17:53 51°13.385 2°51.314 -999 0.035725 0.195342 -1.10504
2009-03-27 08:17:58 51°13.386 2°51.313 -999 0.034387 0.18793 -1.10504
2009-03-27 08:18:03 51°13.388 2°51.312 -999 0.03521 0.192484 -1.10504
2009-03-27 08:18:08 51°13.389 2°51.313 -999 0.036754 0.201051 -1.10504
2009-03-27 08:18:13 51°13.39 2°51.312 -999 0.038297 0.209662 -1.10504
2009-03-27 08:18:18 51°13.391 2°51.311 -999 0.038297 0.209662 -1.10504
2009-03-27 08:18:23 51°13.392 2°51.31 -999 0.036754 0.201075 -1.10504
2009-03-27 08:18:28 51°13.392 2°51.309 -999 0.035416 0.193641 -1.10504
2009-03-27 08:18:33 51°13.393 2°51.308 -999 0.035827 0.195933 -1.10504
2009-03-27 08:18:38 51°13.393 2°51.306 -999 0.035313 0.193098 -1.10504
2009-03-27 08:18:43 51°13.394 2°51.306 -999 0.034696 0.189737 -1.10504
2009-03-27 08:18:48 51°13.394 2°51.306 -999 0.034696 0.189737 -1.10504
2009-03-27 08:18:53 51°13.394 2°51.305 -999 0.034901 0.190904 -1.10504
2009-03-27 08:18:58 51°13.394 2°51.305 -999 0.034181 0.186834 -1.10504
2009-03-27 08:19:03 51°13.393 2°51.304 -999 0.03593 0.19651 -1.10504
2009-03-27 08:19:08 51°13.393 2°51.303 -999 0.034078 0.186268 -1.10504
2009-03-27 08:19:13 51°13.393 2°51.303 -999 0.035004 0.191437 -1.10504
2009-03-27 08:19:18 51°13.392 2°51.303 -999 0.035004 0.191437 -1.10504
2009-03-27 08:19:22 51°13.392 2°51.302 -999 0.03521 0.192608 -1.10504
2009-03-27 08:19:28 51°13.391 2°51.302 -999 0.033872 0.185216 -1.10504
2009-03-27 08:19:33 51°13.391 2°51.302 -999 0.034284 0.187497 -1.10504
2009-03-27 08:19:38 51°13.391 2°51.302 -999 0.036857 0.20177 -1.10504
2009-03-27 08:19:43 51°13.39 2°51.303 -999 0.034901 0.190924 -1.10504
2009-03-27 08:19:48 51°13.39 2°51.303 -999 0.034901 0.190924 -1.10504
2009-03-27 08:19:53 51°13.389 2°51.303 -999 0.034181 0.186925 -1.10504
2009-03-27 08:19:58 51°13.389 2°51.303 -999 0.034078 0.186352 -1.10504
2009-03-27 08:20:03 51°13.388 2°51.302 -999 0.034798 0.19034 -1.10504
2009-03-27 08:20:08 51°13.387 2°51.303 -999 0.034593 0.189197 -1.10504
2009-03-27 08:20:13 51°13.386 2°51.303 -999 0.033666 0.184065 -1.10504
2009-03-27 08:20:18 51°13.386 2°51.303 -999 0.033666 0.184065 -1.10504
2009-03-27 08:20:23 51°13.385 2°51.303 -999 0.03593 0.196606 -1.10504
2009-03-27 08:20:28 51°13.384 2°51.303 -999 0.037062 0.202903 -1.10504
2009-03-27 08:20:33 51°13.383 2°51.304 -999 0.035519 0.19433 -1.10504
2009-03-27 08:20:38 51°13.383 2°51.305 -999 0.039121 0.214366 -1.10504
2009-03-27 08:20:43 51°13.382 2°51.305 -999 0.037474 0.205209 -1.10504
2009-03-27 08:20:47 51°13.381 2°51.305 -999 0.037474 0.205209 -1.10504
2009-03-27 08:20:53 51°13.38 2°51.305 -999 0.035004 0.191524 -1.10504
2009-03-27 08:20:58 51°13.379 2°51.305 -999 0.037165 0.203564 -1.10504
2009-03-27 08:21:03 51°13.378 2°51.305 -999 0.035828 0.196134 -1.10504
2009-03-27 08:21:08 51°13.377 2°51.304 -999 0.035107 0.192134 -1.10504
2009-03-27 08:21:13 51°13.376 2°51.306 -999 0.036033 0.197301 -1.10504
2009-03-27 08:21:18 51°13.375 2°51.306 -999 0.036033 0.197301 -1.10504
2009-03-27 08:21:23 51°13.374 2°51.306 -999 0.036651 0.200752 -1.10504
2009-03-27 08:21:28 51°13.373 2°51.305 -999 0.036136 0.197872 -1.10504
2009-03-27 08:21:33 51°13.372 2°51.306 -999 0.036239 0.198433 -1.10504
2009-03-27 08:21:38 51°13.371 2°51.306 -999 0.035622 0.195012 -1.10504
2009-03-27 08:21:43 51°13.37 2°51.306 -999 0.035313 0.193299 -1.10504
2009-03-27 08:21:48 51°13.368 2°51.306 -999 0.035313 0.193299 -1.10504
2009-03-27 08:21:53 51°13.368 2°51.306 -999 0.036959 0.202458 -1.10504
2009-03-27 08:21:58 51°13.366 2°51.306 -999 0.036959 0.202451 -1.10504
2009-03-27 08:22:03 51°13.365 2°51.306 -999 0.036445 0.199587 -1.10504
2009-03-27 08:22:07 51°13.364 2°51.306 -999 0.037577 0.20589 -1.10504
2009-03-27 08:22:13 51°13.363 2°51.307 -999 0.036136 0.197883 -1.10504
2009-03-27 08:22:18 51°13.362 2°51.306 -999 0.036136 0.197883 -1.10504
2009-03-27 08:22:23 51°13.361 2°51.306 -999 0.036548 0.20017 -1.10504
2009-03-27 08:22:28 51°13.359 2°51.306 -999 0.036136 0.197896 -1.10504
2009-03-27 08:22:33 51°13.358 2°51.306 -999 0.035725 0.195614 -1.10504
2009-03-27 08:22:38 51°13.357 2°51.306 -999 0.035725 0.195634 -1.10504
2009-03-27 08:22:43 51°13.356 2°51.306 -999 0.035622 0.195063 -1.10504
2009-03-27 08:22:48 51°13.354 2°51.306 -999 0.035622 0.195063 -1.10504
2009-03-27 08:22:53 51°13.353 2°51.306 -999 0.034078 0.186504 -1.10504
2009-03-27 08:22:58 51°13.352 2°51.306 -999 0.033769 0.184804 -1.10504
2009-03-27 08:23:03 51°13.351 2°51.306 -999 0.03521 0.192795 -1.10504
2009-03-27 08:23:08 51°13.35 2°51.306 -999 0.034901 0.191063 -1.10504
2009-03-27 08:23:13 51°13.349 2°51.307 -999 0.036033 0.197352 -1.10504
2009-03-27 08:23:18 51°13.348 2°51.306 -999 0.036033 0.197352 -1.10504
2009-03-27 08:23:23 51°13.347 2°51.307 -999 0.034593 0.189338 -1.139864
2009-03-27 08:23:28 51°13.346 2°51.307 -999 0.033769 0.184858 -1.10504
2009-03-27 08:23:33 51°13.345 2°51.306 -999 0.034696 0.19009 -1.10504
2009-03-27 08:23:38 51°13.344 2°51.306 -999 0.035107 0.192398 -1.10504
2009-03-27 08:23:43 51°13.343 2°51.307 -999 0.035416 0.194076 -1.10504
2009-03-27 08:23:48 51°13.342 2°51.307 -999 0.035416 0.194076 -1.10504
2009-03-27 08:23:53 51°13.341 2°51.307 -999 0.034284 0.187793 -1.10504
2009-03-27 08:23:58 51°13.34 2°51.307 -999 0.035313 0.193498 -1.10504
2009-03-27 08:24:03 51°13.339 2°51.307 -999 0.035107 0.192335 -1.10504
2009-03-27 08:24:08 51°13.338 2°51.306 -999 0.034901 0.191172 -1.10504
2009-03-27 08:24:13 51°13.337 2°51.308 -999 0.035313 0.193454 -1.10504
2009-03-27 08:24:18 51°13.336 2°51.308 -999 0.035313 0.193454 -1.10504
2009-03-27 08:24:23 51°13.335 2°51.308 -999 0.03521 0.192876 -1.139864
2009-03-27 08:24:28 51°13.334 2°51.307 -999 0.03449 0.188899 -1.10504
2009-03-27 08:24:33 51°13.333 2°51.307 -999 0.034387 0.188423 -1.10504
2009-03-27 08:24:38 51°13.332 2°51.307 -999 0.034284 0.187859 -1.10504
2009-03-27 08:24:43 51°13.331 2°51.307 -999 0.03449 0.188922 -1.10504
2009-03-27 08:24:48 51°13.33 2°51.307 -999 0.03449 0.188922 -1.10504
2009-03-27 08:24:53 51°13.329 2°51.307 -999 0.036136 0.198027 -1.10504
2009-03-27 08:24:58 51°13.328 2°51.307 -999 0.035416 0.194032 -1.10504
2009-03-27 08:25:03 51°13.327 2°51.308 -999 0.034593 0.18946 -1.10504
2009-03-27 08:25:08 51°13.327 2°51.308 -999 0.036445 0.199765 -1.10504
2009-03-27 08:25:13 51°13.326 2°51.307 -999 0.036033 0.197497 -1.10504
2009-03-27 08:25:18 51°13.325 2°51.307 -999 0.036033 0.197497 -1.10504
2009-03-27 08:25:23 51°13.324 2°51.308 -999 0.033769 0.184935 -1.10504
2009-03-27 08:25:27 51°13.324 2°51.308 -999 0.033769 0.184935 -1.10504
2009-03-27 08:25:33 51°13.323 2°51.308 -999 0.034284 0.187793 -1.10504
2009-03-27 08:25:38 51°13.322 2°51.308 -999 0.035725 0.195798 -1.10504
2009-03-27 08:25:43 51°13.321 2°51.308 -999 0.035725 0.195805 -1.10504
2009-03-27 08:25:48 51°13.32 2°51.307 -999 0.035725 0.195805 -1.10504
2009-03-27 08:25:53 51°13.319 2°51.307 -999 0.034078 0.186659 -1.10504
2009-03-27 08:25:58 51°13.318 2°51.307 -999 0.033564 0.183814 -1.10504
2009-03-27 08:26:03 51°13.317 2°51.307 -999 0.034181 0.187268 -1.10504
2009-03-27 08:26:08 51°13.316 2°51.307 -999 0.033666 0.184422 -1.10504
2009-03-27 08:26:13 51°13.315 2°51.306 -999 0.033461 0.183272 -1.10504
2009-03-27 08:26:18 51°13.315 2°51.307 -999 0.033461 0.183272 -1.10504
2009-03-27 08:26:23 51°13.314 2°51.306 -999 0.033975 0.186117 -1.10504
2009-03-27 08:26:28 51°13.313 2°51.306 -999 0.034798 0.190684 -1.10504
2009-03-27 08:26:33 51°13.312 2°51.306 -999 0.035725 0.195835 -1.10504
2009-03-27 08:26:38 51°13.311 2°51.306 -999 0.036445 0.199849 -1.10504
2009-03-27 08:26:43 51°13.311 2°51.306 -999 0.036445 0.19987 -1.10504
2009-03-27 08:26:47 51°13.31 2°51.306 -999 0.036445 0.19987 -1.10504
2009-03-27 08:26:53 51°13.309 2°51.305 -999 0.036342 0.1993 -1.10504
2009-03-27 08:26:58 51°13.308 2°51.306 -999 0.035004 0.191857 -1.10504
2009-03-27 08:27:03 51°13.307 2°51.306 -999 0.036239 0.198731 -1.10504
2009-03-27 08:27:08 51°13.306 2°51.306 -999 0.035313 0.193568 -1.10504
2009-03-27 08:27:13 51°13.306 2°51.306 -999 0.033769 0.185025 -1.10504
2009-03-27 08:27:18 51°13.305 2°51.306 -999 0.033769 0.185025 -1.10504
2009-03-27 08:27:23 51°13.304 2°51.307 -999 0.034181 0.18735 -1.10504
2009-03-27 08:27:28 51°13.303 2°51.307 -999 0.034696 0.190235 -1.10504
2009-03-27 08:27:33 51°13.302 2°51.306 -999 0.033872 0.185663 -1.10504
2009-03-27 08:27:38 51°13.301 2°51.306 -999 0.033769 0.185089 -1.10504
2009-03-27 08:27:43 51°13.301 2°51.306 -999 0.034181 0.187369 -1.139864
2009-03-27 08:27:48 51°13.3 2°51.306 -999 0.034181 0.187369 -1.139864
2009-03-27 08:27:53 51°13.299 2°51.307 -999 0.033769 0.185086 -1.10504
2009-03-27 08:27:58 51°13.298 2°51.306 -999 0.034696 0.190222 -1.10504
2009-03-27 08:28:03 51°13.297 2°51.306 -999 0.035622 0.195366 -1.10504
2009-03-27 08:28:08 51°13.296 2°51.306 -999 0.034696 0.190219 -1.10504
2009-03-27 08:28:13 51°13.295 2°51.307 -999 0.034078 0.186788 -1.10504
2009-03-27 08:28:18 51°13.294 2°51.307 -999 0.034078 0.186788 -1.10504
2009-03-27 08:28:23 51°13.293 2°51.306 -999 0.034798 0.19079 -1.10504
2009-03-27 08:28:28 51°13.293 2°51.306 -999 0.03449 0.189076 -1.10504
2009-03-27 08:28:33 51°13.292 2°51.307 -999 0.036239 0.198815 -1.10504
2009-03-27 08:28:38 51°13.29 2°51.307 -999 0.034696 0.190239 -1.10504
2009-03-27 08:28:43 51°13.289 2°51.306 -999 0.032534 0.178241 -1.10504
2009-03-27 08:28:47 51°13.289 2°51.308 -999 0.032534 0.178241 -1.10504
2009-03-27 08:28:53 51°13.288 2°51.308 -999 0.033255 0.182224 -1.10504
2009-03-27 08:28:58 51°13.287 2°51.308 -999 0.033872 0.185644 -1.10504
2009-03-27 08:29:03 51°13.286 2°51.308 -999 0.035519 0.1948 -1.10504
2009-03-27 08:29:08 51°13.284 2°51.308 -999 0.035519 0.1948 -1.10504
2009-03-27 08:29:13 51°13.284 2°51.308 -999 0.03521 0.193091 -1.10504
2009-03-27 08:29:18 51°13.283 2°51.308 -999 0.03521 0.193091 -1.10504
2009-03-27 08:29:23 51°13.281 2°51.308 -999 0.034901 0.191369 -1.10504
2009-03-27 08:29:28 51°13.28 2°51.308 -999 0.035828 0.196517 -1.10504
2009-03-27 08:29:33 51°13.28 2°51.309 -999 0.035313 0.193663 -1.10504
2009-03-27 08:29:38 51°13.278 2°51.309 -999 0.034593 0.189654 -1.10504
2009-03-27 08:29:43 51°13.277 2°51.308 -999 0.034181 0.187379 -1.10504
2009-03-27 08:29:48 51°13.276 2°51.308 -999 0.034181 0.187379 -1.10504
2009-03-27 08:29:53 51°13.275 2°51.309 -999 0.03274 0.179393 -1.10504
2009-03-27 08:29:58 51°13.274 2°51.309 -999 0.033769 0.185108 -1.10504
2009-03-27 08:30:03 51°13.273 2°51.309 -999 0.033769 0.185124 -1.10504
2009-03-27 08:30:07 51°13.272 2°51.309 -999 0.033975 0.186273 -1.10504
2009-03-27 08:30:13 51°13.27 2°51.309 -999 0.034593 0.189707 -1.10504
2009-03-27 08:30:18 51°13.269 2°51.309 -999 0.034593 0.189707 -1.10504
2009-03-27 08:30:23 51°13.268 2°51.309 -999 0.032637 0.178863 -1.10504
2009-03-27 08:30:28 51°13.267 2°51.309 -999 0.032226 0.176588 -1.10504
2009-03-27 08:30:33 51°13.266 2°51.309 -999 0.032329 0.177163 -1.10504
2009-03-27 08:30:38 51°13.265 2°51.309 -999 0.033769 0.185172 -1.10504
2009-03-27 08:30:43 51°13.263 2°51.309 -999 0.034387 0.18861 -1.10504
2009-03-27 08:30:48 51°13.262 2°51.31 -999 0.034387 0.18861 -1.10504
2009-03-27 08:30:53 51°13.261 2°51.311 -999 0.033152 0.181745 -1.10504
2009-03-27 08:30:58 51°13.26 2°51.31 -999 0.034387 0.188593 -1.10504
2009-03-27 08:31:02 51°13.259 2°51.311 -999 0.032946 0.180598 -1.10504
2009-03-27 08:31:08 51°13.257 2°51.31 -999 0.033255 0.182306 -1.10504
2009-03-27 08:31:13 51°13.256 2°51.31 -999 0.034284 0.188032 -1.10504
2009-03-27 08:31:18 51°13.255 2°51.31 -999 0.034284 0.188032 -1.10504
2009-03-27 08:31:23 51°13.254 2°51.311 -999 0.033049 0.181184 -1.10504
2009-03-27 08:31:27 51°13.253 2°51.31 -999 0.033975 0.186324 -1.10504
2009-03-27 08:31:33 51°13.251 2°51.31 -999 0.034696 0.190321 -1.10504
2009-03-27 08:31:38 51°13.25 2°51.31 -999 0.034078 0.186896 -1.139864
2009-03-27 08:31:43 51°13.249 2°51.31 -999 0.034387 0.18861 -1.10504
2009-03-27 08:31:48 51°13.247 2°51.309 -999 0.034387 0.18861 -1.10504
2009-03-27 08:31:53 51°13.246 2°51.309 -999 0.035004 0.192054 -1.139864
2009-03-27 08:31:58 51°13.245 2°51.309 -999 0.03521 0.193225 -1.10504
2009-03-27 08:32:03 51°13.244 2°51.31 -999 0.033769 0.185217 -1.10504
2009-03-27 08:32:08 51°13.242 2°51.309 -999 0.033358 0.182918 -1.10504
2009-03-27 08:32:13 51°13.241 2°51.309 -999 0.033564 0.184066 -1.10504
2009-03-27 08:32:18 51°13.24 2°51.309 -999 0.033564 0.184066 -1.10504
2009-03-27 08:32:23 51°13.239 2°51.309 -999 0.034593 0.189803 -1.10504
2009-03-27 08:32:28 51°13.237 2°51.309 -999 0.034798 0.190966 -1.10504
2009-03-27 08:32:33 51°13.236 2°51.309 -999 0.033975 0.186412 -1.10504
2009-03-27 08:32:38 51°13.235 2°51.31 -999 0.034181 0.187555 -1.10504
2009-03-27 08:32:43 51°13.234 2°51.31 -999 0.032432 0.177841 -1.139864
2009-03-27 08:32:48 51°13.232 2°51.31 -999 0.032432 0.177841 -1.139864
2009-03-27 08:32:53 51°13.231 2°51.31 -999 0.032535 0.178408 -1.10504
2009-03-27 08:32:58 51°13.23 2°51.31 -999 0.03202 0.175573 -1.10504
2009-03-27 08:33:03 51°13.229 2°51.309 -999 0.033152 0.181849 -1.10504
2009-03-27 08:33:08 51°13.227 2°51.31 -999 0.034696 0.190408 -1.139864
2009-03-27 08:33:13 51°13.226 2°51.31 -999 0.033872 0.185837 -1.10504
2009-03-27 08:33:18 51°13.225 2°51.31 -999 0.033872 0.185837 -1.10504
2009-03-27 08:33:23 51°13.224 2°51.309 -999 0.033049 0.181278 -1.10504
2009-03-27 08:33:27 51°13.223 2°51.31 -999 0.033358 0.182991 -1.10504
2009-03-27 08:33:33 51°13.221 2°51.31 -999 0.034696 0.190438 -1.10504
2009-03-27 08:33:38 51°13.22 2°51.31 -999 0.03593 0.197331 -1.10504
2009-03-27 08:33:43 51°13.219 2°51.309 -999 0.034284 0.188166 -1.10504
2009-03-27 08:33:48 51°13.218 2°51.309 -999 0.034284 0.188166 -1.10504
2009-03-27 08:33:53 51°13.217 2°51.309 -999 0.03521 0.19332 -1.10504
2009-03-27 08:33:58 51°13.216 2°51.31 -999 0.035313 0.193913 -1.10504
2009-03-27 08:34:03 51°13.215 2°51.309 -999 0.033358 0.183054 -1.10504
2009-03-27 08:34:08 51°13.214 2°51.308 -999 0.034284 0.188205 -1.10504
2009-03-27 08:34:13 51°13.213 2°51.308 -999 0.035107 0.192791 -1.10504
2009-03-27 08:34:18 51°13.212 2°51.309 -999 0.035107 0.192791 -1.10504
2009-03-27 08:34:23 51°13.211 2°51.308 -999 0.034798 0.191073 -1.139864
2009-03-27 08:34:28 51°13.21 2°51.308 -999 0.034593 0.189932 -1.139864
2009-03-27 08:34:33 51°13.209 2°51.308 -999 0.034901 0.191656 -1.10504
2009-03-27 08:34:38 51°13.208 2°51.307 -999 0.033666 0.184791 -1.10504
2009-03-27 08:34:43 51°13.207 2°51.307 -999 0.03449 0.189386 -1.10504
2009-03-27 08:34:47 51°13.206 2°51.307 -999 0.03449 0.189386 -1.10504
2009-03-27 08:34:53 51°13.205 2°51.307 -999 0.035622 0.195676 -1.139864
2009-03-27 08:34:58 51°13.204 2°51.307 -999 0.036033 0.197977 -1.10504
2009-03-27 08:35:03 51°13.203 2°51.307 -999 0.03521 0.193441 -1.10504
2009-03-27 08:35:08 51°13.203 2°51.307 -999 0.034284 0.18831 -1.10504
2009-03-27 08:35:13 51°13.202 2°51.306 -999 0.033152 0.182013 -1.10504
2009-03-27 08:35:18 51°13.2 2°51.306 -999 0.033152 0.182013 -1.10504
2009-03-27 08:35:23 51°13.2 2°51.307 -999 0.033564 0.184293 -1.10504
2009-03-27 08:35:28 51°13.199 2°51.308 -999 0.033769 0.185414 -1.10504
2009-03-27 08:35:33 51°13.198 2°51.307 -999 0.033769 0.185382 -1.139864
2009-03-27 08:35:38 51°13.197 2°51.306 -999 0.034901 0.191682 -1.10504
2009-03-27 08:35:43 51°13.196 2°51.307 -999 0.034901 0.191679 -1.10504
2009-03-27 08:35:48 51°13.194 2°51.307 -999 0.034901 0.191679 -1.10504
2009-03-27 08:35:53 51°13.193 2°51.307 -999 0.034593 0.189955 -1.10504
2009-03-27 08:35:58 51°13.192 2°51.306 -999 0.034284 0.188284 -1.139864
2009-03-27 08:36:03 51°13.191 2°51.306 -999 0.034696 0.190587 -1.10504
2009-03-27 08:36:07 51°13.19 2°51.307 -999 0.034078 0.187136 -1.10504
2009-03-27 08:36:13 51°13.189 2°51.306 -999 0.033975 0.18658 -1.10504
2009-03-27 08:36:18 51°13.188 2°51.306 -999 0.033975 0.18658 -1.10504
2009-03-27 08:36:23 51°13.187 2°51.306 -999 0.033975 0.186662 -1.10504
2009-03-27 08:36:28 51°13.186 2°51.305 -999 0.034181 0.187829 -1.10504
2009-03-27 08:36:33 51°13.186 2°51.305 -999 0.034696 0.19069 -1.10504
2009-03-27 08:36:38 51°13.185 2°51.305 -999 0.034593 0.190094 -1.10504
2009-03-27 08:36:43 51°13.186 2°51.305 -999 0.034901 0.191853 -1.10504
2009-03-27 08:36:48 51°13.186 2°51.305 -999 0.034901 0.191853 -1.10504
2009-03-27 08:36:53 51°13.187 2°51.305 -999 0.034078 0.18728 -1.10504
2009-03-27 08:36:58 51°13.187 2°51.303 -999 0.033975 0.18672 -1.10504
2009-03-27 08:37:03 51°13.188 2°51.303 -999 0.035107 0.193027 -1.10504
2009-03-27 08:37:08 51°13.189 2°51.301 -999 0.034181 0.187869 -1.10504
2009-03-27 08:37:13 51°13.19 2°51.3 -999 0.03449 0.189584 -1.10504
2009-03-27 08:37:18 51°13.191 2°51.297 -999 0.03449 0.189584 -1.10504
2009-03-27 08:37:23 51°13.193 2°51.295 -999 0.033872 0.186151 -1.10504
2009-03-27 08:37:28 51°13.194 2°51.292 -999 0.03593 0.197645 -1.139864
2009-03-27 08:37:33 51°13.196 2°51.29 -999 0.034696 0.190773 -1.10504
2009-03-27 08:37:38 51°13.198 2°51.287 -999 0.035107 0.193071 -1.10504
2009-03-27 08:37:43 51°13.199 2°51.284 -999 0.035107 0.193087 -1.10504
2009-03-27 08:37:48 51°13.201 2°51.28 -999 0.035107 0.193087 -1.10504
2009-03-27 08:37:53 51°13.203 2°51.277 -999 0.034078 0.187329 -1.139864
2009-03-27 08:37:58 51°13.204 2°51.273 -999 0.035622 0.195909 -1.10504
2009-03-27 08:38:03 51°13.205 2°51.268 -999 0.035107 0.19304 -1.10504
2009-03-27 08:38:07 51°13.206 2°51.264 -999 0.035004 0.192467 -1.10504
2009-03-27 08:38:13 51°13.208 2°51.258 -999 0.035313 0.194204 -1.10504
2009-03-27 08:38:18 51°13.209 2°51.251 -999 0.035313 0.194204 -1.10504
2009-03-27 08:38:23 51°13.209 2°51.245 -999 0.033564 0.184444 -1.10504
2009-03-27 08:38:28 51°13.21 2°51.237 -999 0.034696 0.190737 -1.10504
2009-03-27 08:38:33 51°13.209 2°51.23 -999 0.035519 0.195356 -1.10504
2009-03-27 08:38:38 51°13.209 2°51.223 -999 0.033564 0.184466 -1.10504
2009-03-27 08:38:43 51°13.208 2°51.216 -999 0.034901 0.191876 -1.10504
2009-03-27 08:38:48 51°13.206 2°51.209 -999 0.034901 0.191876 -1.10504
2009-03-27 08:38:53 51°13.204 2°51.203 -999 0.036136 0.19877 -1.10504
2009-03-27 08:38:58 51°13.202 2°51.196 -999 0.037474 0.206309 -1.139864
2009-03-27 08:39:03 51°13.199 2°51.191 -999 0.034696 0.190793 -1.10504
2009-03-27 08:39:08 51°13.196 2°51.186 -999 0.036445 0.200549 -1.139864
2009-03-27 08:39:13 51°13.194 2°51.182 -999 0.038091 0.209757 -1.10504
2009-03-27 08:39:18 51°13.191 2°51.177 -999 0.038091 0.209757 -1.10504
2009-03-27 08:39:23 51°13.188 2°51.173 -999 0.039018 0.214953 -1.10504
2009-03-27 08:39:27 51°13.185 2°51.17 -999 0.038503 0.212167 -1.10504
2009-03-27 08:39:33 51°13.182 2°51.165 -999 0.037268 0.205375 -1.139864
2009-03-27 08:39:38 51°13.179 2°51.162 -999 0.03768 0.207687 -1.139864
2009-03-27 08:39:43 51°13.175 2°51.159 -999 0.038091 0.209979 -1.10504
2009-03-27 08:39:48 51°13.172 2°51.156 -999 0.038091 0.209979 -1.10504
2009-03-27 08:39:53 51°13.169 2°51.153 -999 0.04406 0.243561 -1.10504
2009-03-27 08:39:58 51°13.166 2°51.15 -999 0.044266 0.244693 -1.139864
2009-03-27 08:40:03 51°13.163 2°51.147 -999 0.045192 0.249936 -1.10504
2009-03-27 08:40:08 51°13.16 2°51.144 -999 0.043649 0.241181 -1.10504
2009-03-27 08:40:13 51°13.157 2°51.14 -999 0.044472 0.245829 -1.10504
2009-03-27 08:40:18 51°13.154 2°51.136 -999 0.044472 0.245829 -1.10504
2009-03-27 08:40:22 51°13.151 2°51.133 -999 0.045501 0.25166 -1.139864
2009-03-27 08:40:28 51°13.148 2°51.128 -999 0.04406 0.243539 -1.139864
2009-03-27 08:40:33 51°13.145 2°51.124 -999 0.046015 0.254621 -1.10504
2009-03-27 08:40:38 51°13.142 2°51.119 -999 0.047868 0.265128 -1.10504
2009-03-27 08:40:43 51°13.139 2°51.114 -999 0.047765 0.264549 -1.10504
2009-03-27 08:40:47 51°13.137 2°51.11 -999 0.047765 0.264549 -1.10504
2009-03-27 08:40:53 51°13.133 2°51.103 -999 0.048897 0.270974 -1.139864
2009-03-27 08:40:58 51°13.13 2°51.097 -999 0.048074 0.2663 -1.10504
2009-03-27 08:41:03 51°13.127 2°51.091 -999 0.051367 0.285015 -1.10504
2009-03-27 08:41:08 51°13.124 2°51.085 -999 0.048897 0.270959 -1.10504
2009-03-27 08:41:13 51°13.121 2°51.079 -999 0.050852 0.28208 -1.10504
2009-03-27 08:41:18 51°13.118 2°51.072 -999 0.050852 0.28208 -1.10504
2009-03-27 08:41:23 51°13.115 2°51.066 -999 0.049926 0.276817 -1.10504
2009-03-27 08:41:28 51°13.113 2°51.059 -999 0.051058 0.283272 -1.139864
2009-03-27 08:41:33 51°13.109 2°51.053 -999 0.046839 0.25927 -1.10504
2009-03-27 08:41:38 51°13.106 2°51.047 -999 0.049926 0.276892 -1.139864
2009-03-27 08:41:42 51°13.104 2°51.041 -999 0.047765 0.264606 -1.10504
2009-03-27 08:41:48 51°13.1 2°51.034 -999 0.047765 0.264606 -1.10504
2009-03-27 08:41:53 51°13.097 2°51.027 -999 0.050235 0.278658 -1.10504
2009-03-27 08:41:58 51°13.094 2°51.021 -999 0.050338 0.279238 -1.10504
2009-03-27 08:42:03 51°13.091 2°51.014 -999 0.049823 0.276316 -1.10504
2009-03-27 08:42:08 51°13.088 2°51.007 -999 0.047662 0.264031 -1.10504
2009-03-27 08:42:13 51°13.085 2°51 -999 0.050029 0.277537 -1.10504
2009-03-27 08:42:18 51°13.082 2°50.993 -999 0.050029 0.277537 -1.10504
2009-03-27 08:42:23 51°13.079 2°50.986 -999 0.051778 0.287592 -1.139864
2009-03-27 08:42:28 51°13.075 2°50.981 -999 0.051367 0.285313 -1.10504
2009-03-27 08:42:33 51°13.072 2°50.974 -999 0.048279 0.267728 -1.10504
2009-03-27 08:42:38 51°13.069 2°50.968 -999 0.04653 0.257761 -1.10504
2009-03-27 08:42:43 51°13.066 2°50.961 -999 0.047765 0.26472 -1.10504
2009-03-27 08:42:48 51°13.063 2°50.955 -999 0.047765 0.26472 -1.10504
2009-03-27 08:42:53 51°13.06 2°50.949 -999 0.04581 0.253629 -1.10504
2009-03-27 08:42:58 51°13.057 2°50.943 -999 0.046736 0.258854 -1.10504
2009-03-27 08:43:03 51°13.054 2°50.937 -999 0.051264 0.284582 -1.10504
2009-03-27 08:43:07 51°13.051 2°50.932 -999 0.052704 0.292807 -1.10504
2009-03-27 08:43:13 51°13.048 2°50.925 -999 0.051881 0.288086 -1.10504
2009-03-27 08:43:18 51°13.045 2°50.919 -999 0.051881 0.288086 -1.10504
2009-03-27 08:43:23 51°13.041 2°50.912 -999 0.050235 0.278698 -1.10504
2009-03-27 08:43:28 51°13.038 2°50.906 -999 0.049823 0.276391 -1.10504
2009-03-27 08:43:33 51°13.035 2°50.9 -999 0.049308 0.273479 -1.10504
2009-03-27 08:43:38 51°13.032 2°50.894 -999 0.050132 0.278162 -1.10504
2009-03-27 08:43:43 51°13.029 2°50.887 -999 0.051058 0.283451 -1.10504
2009-03-27 08:43:48 51°13.025 2°50.881 -999 0.051058 0.283451 -1.10504
2009-03-27 08:43:53 51°13.022 2°50.874 -999 0.052087 0.289337 -1.10504
2009-03-27 08:43:58 51°13.019 2°50.868 -999 0.050852 0.282284 -1.10504
2009-03-27 08:44:03 51°13.016 2°50.862 -999 0.049514 0.27466 -1.10504
2009-03-27 08:44:08 51°13.013 2°50.856 -999 0.050132 0.278192 -1.10504
2009-03-27 08:44:13 51°13.009 2°50.85 -999 0.048279 0.267665 -1.10504
2009-03-27 08:44:18 51°13.006 2°50.843 -999 0.048279 0.267665 -1.10504
2009-03-27 08:44:23 51°13.003 2°50.837 -999 0.050235 0.278773 -1.10504
2009-03-27 08:44:27 51°13 2°50.832 -999 0.048279 0.267641 -1.10504
2009-03-27 08:44:33 51°12.996 2°50.824 -999 0.049514 0.274645 -1.10504
2009-03-27 08:44:38 51°12.993 2°50.818 -999 0.048485 0.268791 -1.10504
2009-03-27 08:44:43 51°12.989 2°50.811 -999 0.048794 0.27054 -1.10504
2009-03-27 08:44:48 51°12.987 2°50.804 -999 0.048794 0.27054 -1.10504
2009-03-27 08:44:53 51°12.983 2°50.798 -999 0.049617 0.275225 -1.10504
2009-03-27 08:44:58 51°12.98 2°50.791 -999 0.048691 0.269965 -1.10504
2009-03-27 08:45:03 51°12.976 2°50.785 -999 0.047456 0.262958 -1.10504
2009-03-27 08:45:08 51°12.973 2°50.779 -999 0.049206 0.272904 -1.10504
2009-03-27 08:45:13 51°12.97 2°50.773 -999 0.045192 0.250146 -1.139864
2009-03-27 08:45:18 51°12.967 2°50.767 -999 0.045192 0.250146 -1.139864
2009-03-27 08:45:22 51°12.964 2°50.762 -999 0.048794 0.270603 -1.10504
2009-03-27 08:45:28 51°12.96 2°50.755 -999 0.048382 0.268259 -1.10504
2009-03-27 08:45:33 51°12.958 2°50.748 -999 0.049308 0.273538 -1.10504
2009-03-27 08:45:38 51°12.955 2°50.743 -999 0.049411 0.274134 -1.10504
2009-03-27 08:45:43 51°12.951 2°50.738 -999 0.049823 0.27649 -1.10504
2009-03-27 08:45:47 51°12.949 2°50.733 -999 0.049823 0.27649 -1.10504
2009-03-27 08:45:53 51°12.945 2°50.727 -999 0.048588 0.269468 -1.139864
2009-03-27 08:45:58 51°12.942 2°50.721 -999 0.048279 0.267684 -1.10504
2009-03-27 08:46:03 51°12.94 2°50.715 -999 0.048897 0.271188 -1.10504
2009-03-27 08:46:08 51°12.937 2°50.71 -999 0.05147 0.285848 -1.139864
2009-03-27 08:46:13 51°12.934 2°50.705 -999 0.049 0.271773 -1.10504
2009-03-27 08:46:18 51°12.931 2°50.7 -999 0.049 0.271773 -1.10504
2009-03-27 08:46:23 51°12.928 2°50.695 -999 0.051161 0.284093 -1.10504
2009-03-27 08:46:28 51°12.925 2°50.69 -999 0.05044 0.280015 -1.10504
2009-03-27 08:46:33 51°12.923 2°50.684 -999 0.047147 0.261314 -1.10504
2009-03-27 08:46:38 51°12.92 2°50.679 -999 0.046118 0.255483 -1.10504
2009-03-27 08:46:43 51°12.917 2°50.674 -999 0.05044 0.280071 -1.10504
2009-03-27 08:46:48 51°12.914 2°50.669 -999 0.05044 0.280071 -1.10504
2009-03-27 08:46:53 51°12.912 2°50.663 -999 0.048897 0.271315 -1.10504
2009-03-27 08:46:58 51°12.909 2°50.658 -999 0.049411 0.274217 -1.139864
2009-03-27 08:47:03 51°12.906 2°50.652 -999 0.047456 0.263152 -1.10504
2009-03-27 08:47:08 51°12.903 2°50.647 -999 0.045707 0.2533 -1.10504
2009-03-27 08:47:13 51°12.901 2°50.642 -999 0.04725 0.262058 -1.10504
2009-03-27 08:47:18 51°12.898 2°50.637 -999 0.04725 0.262058 -1.10504
2009-03-27 08:47:23 51°12.896 2°50.631 -999 0.047045 0.260871 -1.10504
2009-03-27 08:47:28 51°12.893 2°50.626 -999 0.04725 0.262021 -1.10504
2009-03-27 08:47:33 51°12.89 2°50.621 -999 0.049617 0.275513 -1.10504
2009-03-27 08:47:38 51°12.888 2°50.616 -999 0.049309 0.273785 -1.10504
2009-03-27 08:47:43 51°12.885 2°50.61 -999 0.059394 0.331675 -1.10504
2009-03-27 08:47:47 51°12.882 2°50.606 -999 0.059394 0.331675 -1.10504
2009-03-27 08:47:53 51°12.879 2°50.601 -999 0.052602 0.292711 -1.10504
2009-03-27 08:47:58 51°12.876 2°50.596 -999 0.056101 0.312691 -1.139864
2009-03-27 08:48:03 51°12.874 2°50.591 -999 0.053939 0.300297 -1.10504
2009-03-27 08:48:08 51°12.871 2°50.586 -999 0.053322 0.296765 -1.10504
2009-03-27 08:48:13 51°12.869 2°50.581 -999 0.051675 0.287363 -1.139864
2009-03-27 08:48:18 51°12.866 2°50.576 -999 0.051675 0.287363 -1.139864
2009-03-27 08:48:23 51°12.864 2°50.571 -999 0.052705 0.29322 -1.139864
2009-03-27 08:48:28 51°12.861 2°50.566 -999 0.054145 0.301469 -1.10504
2009-03-27 08:48:33 51°12.858 2°50.56 -999 0.050235 0.27914 -1.10504
2009-03-27 08:48:38 51°12.856 2°50.555 -999 0.052705 0.293225 -1.10504
2009-03-27 08:48:43 51°12.853 2°50.55 -999 0.050955 0.283242 -1.10504
2009-03-27 08:48:48 51°12.851 2°50.545 -999 0.050955 0.283242 -1.10504
2009-03-27 08:48:53 51°12.849 2°50.539 -999 0.050543 0.280946 -1.10504
2009-03-27 08:48:58 51°12.846 2°50.534 -999 0.050441 0.280394 -1.139864
2009-03-27 08:49:03 51°12.844 2°50.528 -999 0.051161 0.284555 -1.10504
2009-03-27 08:49:07 51°12.842 2°50.524 -999 0.053013 0.295203 -1.10504
2009-03-27 08:49:13 51°12.839 2°50.517 -999 0.049206 0.273455 -1.10504
2009-03-27 08:49:18 51°12.837 2°50.512 -999 0.049206 0.273455 -1.10504
2009-03-27 08:49:23 51°12.834 2°50.506 -999 0.052807 0.294031 -1.10504
2009-03-27 08:49:28 51°12.832 2°50.501 -999 0.054454 0.30345 -1.10504
2009-03-27 08:49:33 51°12.83 2°50.496 -999 0.051058 0.284014 -1.10504
2009-03-27 08:49:38 51°12.827 2°50.491 -999 0.051984 0.289278 -1.139864
2009-03-27 08:49:43 51°12.825 2°50.487 -999 0.050955 0.283396 -1.139864
2009-03-27 08:49:48 51°12.822 2°50.482 -999 0.050955 0.283396 -1.139864
2009-03-27 08:49:53 51°12.819 2°50.477 -999 0.053734 0.299287 -1.10504
2009-03-27 08:49:58 51°12.817 2°50.472 -999 0.051675 0.287524 -1.139864
2009-03-27 08:50:03 51°12.815 2°50.467 -999 0.050235 0.279301 -1.139864
2009-03-27 08:50:08 51°12.812 2°50.462 -999 0.053219 0.296364 -1.139864
2009-03-27 08:50:13 51°12.81 2°50.457 -999 0.051058 0.284024 -1.10504
2009-03-27 08:50:18 51°12.808 2°50.452 -999 0.051058 0.284024 -1.10504
2009-03-27 08:50:23 51°12.806 2°50.447 -999 0.050441 0.280511 -1.10504
2009-03-27 08:50:27 51°12.804 2°50.443 -999 0.053219 0.296407 -1.10504
2009-03-27 08:50:33 51°12.801 2°50.437 -999 0.054042 0.301115 -1.139864
2009-03-27 08:50:38 51°12.798 2°50.433 -999 0.051984 0.289346 -1.10504
2009-03-27 08:50:43 51°12.795 2°50.428 -999 0.053013 0.295267 -1.139864
2009-03-27 08:50:48 51°12.793 2°50.423 -999 0.053013 0.295267 -1.139864
2009-03-27 08:50:53 51°12.79 2°50.418 -999 0.054557 0.304139 -1.10504
2009-03-27 08:50:58 51°12.787 2°50.414 -999 0.054557 0.304123 -1.10504
2009-03-27 08:51:03 51°12.785 2°50.409 -999 0.054145 0.301726 -1.139864
2009-03-27 08:51:08 51°12.783 2°50.404 -999 0.053837 0.299947 -1.139864
2009-03-27 08:51:13 51°12.78 2°50.399 -999 0.054042 0.301147 -1.10504
2009-03-27 08:51:18 51°12.778 2°50.394 -999 0.054042 0.301147 -1.10504
2009-03-27 08:51:22 51°12.776 2°50.391 -999 0.052807 0.2941 -1.10504
2009-03-27 08:51:28 51°12.773 2°50.385 -999 0.051573 0.28703 -1.139864
2009-03-27 08:51:33 51°12.771 2°50.38 -999 0.051675 0.287618 -1.10504
2009-03-27 08:51:38 51°12.768 2°50.375 -999 0.052293 0.291147 -1.10504
2009-03-27 08:51:43 51°12.766 2°50.37 -999 0.052499 0.292345 -1.10504
2009-03-27 08:51:48 51°12.764 2°50.365 -999 0.052499 0.292345 -1.10504
2009-03-27 08:51:53 51°12.761 2°50.36 -999 0.052293 0.291173 -1.139864
2009-03-27 08:51:58 51°12.759 2°50.354 -999 0.050543 0.281189 -1.139864
2009-03-27 08:52:03 51°12.757 2°50.349 -999 0.052293 0.29121 -1.10504
2009-03-27 08:52:08 51°12.755 2°50.343 -999 0.049206 0.273578 -1.10504
2009-03-27 08:52:13 51°12.752 2°50.338 -999 0.049 0.272528 -1.10504
2009-03-27 08:52:18 51°12.75 2°50.333 -999 0.049 0.272528 -1.10504
2009-03-27 08:52:23 51°12.748 2°50.328 -999 0.048279 0.26851 -1.10504
2009-03-27 08:52:28 51°12.746 2°50.322 -999 0.051778 0.288561 -1.10504
2009-03-27 08:52:33 51°12.744 2°50.318 -999 0.051675 0.287993 -1.139864
2009-03-27 08:52:38 51°12.741 2°50.312 -999 0.052807 0.294431 -1.10504
2009-03-27 08:52:43 51°12.739 2°50.307 -999 0.055071 0.307345 -1.139864
2009-03-27 08:52:47 51°12.737 2°50.303 -999 0.055071 0.307345 -1.139864
2009-03-27 08:52:53 51°12.734 2°50.298 -999 0.051778 0.288493 -1.10504
2009-03-27 08:52:58 51°12.732 2°50.294 -999 0.051058 0.284384 -1.10504
2009-03-27 08:53:03 51°12.729 2°50.289 -999 0.051264 0.285561 -1.10504
2009-03-27 08:53:08 51°12.726 2°50.285 -999 0.051573 0.287326 -1.10504
2009-03-27 08:53:13 51°12.724 2°50.28 -999 0.052602 0.293204 -1.10504
2009-03-27 08:53:18 51°12.721 2°50.276 -999 0.052602 0.293204 -1.10504
2009-03-27 08:53:23 51°12.719 2°50.271 -999 0.053219 0.296708 -1.10504
2009-03-27 08:53:28 51°12.717 2°50.266 -999 0.055586 0.310299 -1.10504
2009-03-27 08:53:33 51°12.714 2°50.261 -999 0.054248 0.302612 -1.10504
2009-03-27 08:53:38 51°12.712 2°50.257 -999 0.05291 0.294924 -1.10504
2009-03-27 08:53:43 51°12.709 2°50.252 -999 0.05466 0.304972 -1.10504
2009-03-27 08:53:48 51°12.707 2°50.247 -999 0.05466 0.304972 -1.10504
2009-03-27 08:53:53 51°12.704 2°50.242 -999 0.054145 0.302011 -1.10504
2009-03-27 08:53:58 51°12.702 2°50.238 -999 0.054351 0.303169 -1.10504
2009-03-27 08:54:03 51°12.7 2°50.233 -999 0.060217 0.33694 -1.10504
2009-03-27 08:54:07 51°12.698 2°50.23 -999 0.054248 0.302595 -1.10504
2009-03-27 08:54:13 51°12.695 2°50.224 -999 0.053425 0.297877 -1.10504
2009-03-27 08:54:18 51°12.692 2°50.22 -999 0.053425 0.297877 -1.10504
2009-03-27 08:54:23 51°12.69 2°50.215 -999 0.05466 0.304983 -1.10504
2009-03-27 08:54:28 51°12.688 2°50.211 -999 0.054248 0.302667 -1.139864
2009-03-27 08:54:33 51°12.685 2°50.206 -999 0.051573 0.287384 -1.10504
2009-03-27 08:54:38 51°12.683 2°50.202 -999 0.053631 0.299181 -1.10504
2009-03-27 08:54:43 51°12.681 2°50.199 -999 0.054042 0.301519 -1.139864
2009-03-27 08:54:48 51°12.679 2°50.195 -999 0.054042 0.301519 -1.139864
2009-03-27 08:54:53 51°12.677 2°50.191 -999 0.053528 0.298564 -1.10504
2009-03-27 08:54:58 51°12.675 2°50.187 -999 0.052293 0.291511 -1.10504
2009-03-27 08:55:03 51°12.672 2°50.183 -999 0.053837 0.300404 -1.10504
2009-03-27 08:55:08 51°12.669 2°50.18 -999 0.054351 0.303384 -1.10504
2009-03-27 08:55:13 51°12.668 2°50.175 -999 0.054557 0.30457 -1.10504
2009-03-27 08:55:18 51°12.665 2°50.171 -999 0.054557 0.30457 -1.10504
2009-03-27 08:55:23 51°12.663 2°50.168 -999 0.067009 0.37656 -1.10504
2009-03-27 08:55:27 51°12.661 2°50.164 -999 0.061555 0.345012 -1.10504
2009-03-27 08:55:33 51°12.658 2°50.159 -999 0.058879 0.329531 -1.10504
2009-03-27 08:55:38 51°12.656 2°50.154 -999 0.059188 0.331317 -1.139864
2009-03-27 08:55:43 51°12.654 2°50.15 -999 0.056615 0.316522 -1.139864
2009-03-27 08:55:48 51°12.651 2°50.145 -999 0.056615 0.316522 -1.139864
2009-03-27 08:55:53 51°12.649 2°50.14 -999 0.058467 0.327218 -1.10504
2009-03-27 08:55:58 51°12.647 2°50.135 -999 0.057335 0.320697 -1.139864
2009-03-27 08:56:03 51°12.644 2°50.13 -999 0.056615 0.316522 -1.10504
2009-03-27 08:56:08 51°12.642 2°50.125 -999 0.058056 0.324899 -1.10504
2009-03-27 08:56:13 51°12.64 2°50.12 -999 0.054969 0.30742 -1.139864
2009-03-27 08:56:18 51°12.638 2°50.115 -999 0.054969 0.30742 -1.139864
2009-03-27 08:56:23 51°12.635 2°50.11 -999 0.05147 0.287357 -1.10504
2009-03-27 08:56:28 51°12.633 2°50.105 -999 0.05466 0.305555 -1.10504
2009-03-27 08:56:33 51°12.631 2°50.1 -999 0.054557 0.304925 -1.139864
2009-03-27 08:56:38 51°12.629 2°50.094 -999 0.054763 0.306108 -1.10504
2009-03-27 08:56:43 51°12.626 2°50.09 -999 0.054248 0.303201 -1.10504
2009-03-27 08:56:48 51°12.624 2°50.084 -999 0.054248 0.303201 -1.10504
2009-03-27 08:56:53 51°12.622 2°50.079 -999 0.050646 0.282553 -1.10504
2009-03-27 08:56:58 51°12.62 2°50.074 -999 0.048794 0.271959 -1.139864
2009-03-27 08:57:03 51°12.618 2°50.069 -999 0.051264 0.286121 -1.10504
2009-03-27 08:57:07 51°12.616 2°50.065 -999 0.051058 0.284962 -1.10504
2009-03-27 08:57:13 51°12.613 2°50.059 -999 0.053837 0.300902 -1.10504
2009-03-27 08:57:18 51°12.611 2°50.054 -999 0.053837 0.300902 -1.10504
2009-03-27 08:57:23 51°12.609 2°50.049 -999 0.053528 0.299178 -1.10504
2009-03-27 08:57:27 51°12.607 2°50.044 -999 0.054454 0.304467 -1.10504
2009-03-27 08:57:33 51°12.604 2°50.038 -999 0.052396 0.292642 -1.10504
2009-03-27 08:57:38 51°12.602 2°50.033 -999 0.055277 0.30919 -1.10504
2009-03-27 08:57:43 51°12.6 2°50.028 -999 0.051778 0.289085 -1.10504
2009-03-27 08:57:48 51°12.597 2°50.024 -999 0.051778 0.289085 -1.10504
2009-03-27 08:57:53 51°12.595 2°50.019 -999 0.053116 0.296776 -1.10504
2009-03-27 08:57:58 51°12.593 2°50.014 -999 0.054866 0.306895 -1.139864
2009-03-27 08:58:03 51°12.59 2°50.01 -999 0.049617 0.27682 -1.10504
2009-03-27 08:58:08 51°12.589 2°50.005 -999 0.051675 0.288605 -1.139864
2009-03-27 08:58:13 51°12.586 2°50.001 -999 0.053631 0.299856 -1.10504
2009-03-27 08:58:18 51°12.584 2°49.996 -999 0.053631 0.299856 -1.10504
2009-03-27 08:58:22 51°12.582 2°49.992 -999 0.05785 0.324181 -1.10504
2009-03-27 08:58:28 51°12.58 2°49.987 -999 0.056306 0.315315 -1.10504
2009-03-27 08:58:33 51°12.578 2°49.982 -999 0.055174 0.308739 -1.10504
2009-03-27 08:58:38 51°12.576 2°49.978 -999 0.050441 0.281523 -1.139864
2009-03-27 08:58:43 51°12.574 2°49.974 -999 0.055071 0.30813 -1.10504
2009-03-27 08:58:48 51°12.572 2°49.97 -999 0.055071 0.30813 -1.10504
2009-03-27 08:58:53 51°12.57 2°49.966 -999 0.054454 0.304639 -1.10504
2009-03-27 08:58:58 51°12.568 2°49.961 -999 0.05291 0.29582 -1.10504
2009-03-27 08:59:03 51°12.566 2°49.957 -999 0.052396 0.292866 -1.10504
2009-03-27 08:59:08 51°12.564 2°49.952 -999 0.049 0.273422 -1.10504
2009-03-27 08:59:13 51°12.563 2°49.947 -999 0.049 0.273467 -1.10504
2009-03-27 08:59:18 51°12.561 2°49.943 -999 0.049 0.273467 -1.10504
2009-03-27 08:59:22 51°12.56 2°49.939 -999 0.049617 0.277041 -1.10504
2009-03-27 08:59:28 51°12.557 2°49.933 -999 0.051264 0.286511 -1.10504
2009-03-27 08:59:33 51°12.556 2°49.929 -999 0.050235 0.28064 -1.10504
2009-03-27 08:59:38 51°12.554 2°49.924 -999 0.049103 0.274215 -1.10504
2009-03-27 08:59:43 51°12.552 2°49.92 -999 0.044163 0.246024 -1.139864
2009-03-27 08:59:48 51°12.55 2°49.915 -999 0.044163 0.246024 -1.139864
2009-03-27 08:59:53 51°12.548 2°49.91 -999 0.048177 0.268948 -1.10504
2009-03-27 08:59:58 51°12.546 2°49.906 -999 0.046633 0.260147 -1.139864
2009-03-27 09:00:03 51°12.544 2°49.901 -999 0.048382 0.27014 -1.10504
2009-03-27 09:00:08 51°12.542 2°49.897 -999 0.044266 0.246623 -1.10504
2009-03-27 09:00:13 51°12.54 2°49.892 -999 0.043751 0.243706 -1.10504
2009-03-27 09:00:18 51°12.538 2°49.887 -999 0.043751 0.243706 -1.10504
2009-03-27 09:00:22 51°12.536 2°49.883 -999 0.044369 0.247263 -1.10504
2009-03-27 09:00:28 51°12.533 2°49.878 -999 0.046324 0.258482 -1.10504
2009-03-27 09:00:33 51°12.531 2°49.873 -999 0.049926 0.279063 -1.10504
2009-03-27 09:00:38 51°12.528 2°49.869 -999 0.04581 0.25547 -1.10504
2009-03-27 09:00:43 51°12.526 2°49.864 -999 0.044986 0.250755 -1.139864
2009-03-27 09:00:48 51°12.524 2°49.859 -999 0.044986 0.250755 -1.139864
2009-03-27 09:00:53 51°12.521 2°49.854 -999 0.046942 0.261911 -1.10504
2009-03-27 09:00:58 51°12.519 2°49.848 -999 0.046839 0.261347 -1.139864
2009-03-27 09:01:03 51°12.516 2°49.843 -999 0.046015 0.256672 -1.10504
2009-03-27 09:01:08 51°12.513 2°49.838 -999 0.047045 0.262566 -1.139864
2009-03-27 09:01:13 51°12.511 2°49.833 -999 0.050543 0.282641 -1.10504
2009-03-27 09:01:18 51°12.509 2°49.827 -999 0.050543 0.282641 -1.10504
2009-03-27 09:01:23 51°12.505 2°49.823 -999 0.061246 0.34447 -1.10504
2009-03-27 09:01:28 51°12.502 2°49.819 -999 0.062172 0.34987 -1.139864
2009-03-27 09:01:33 51°12.499 2°49.814 -999 0.059908 0.336599 -1.10504
2009-03-27 09:01:38 51°12.496 2°49.809 -999 0.059702 0.335345 -1.139864
2009-03-27 09:01:42 51°12.494 2°49.805 -999 0.059188 0.332398 -1.139864
2009-03-27 09:01:48 51°12.49 2°49.799 -999 0.059188 0.332398 -1.139864
2009-03-27 09:01:53 51°12.488 2°49.794 -999 0.053631 0.30037 -1.10504
2009-03-27 09:01:58 51°12.484 2°49.789 -999 0.050543 0.282621 -1.139864
2009-03-27 09:02:03 51°12.482 2°49.784 -999 0.049309 0.275554 -1.10504
2009-03-27 09:02:08 51°12.479 2°49.779 -999 0.048382 0.270273 -1.139864
2009-03-27 09:02:13 51°12.476 2°49.773 -999 0.04653 0.259644 -1.139864
2009-03-27 09:02:18 51°12.473 2°49.768 -999 0.04653 0.259644 -1.139864
2009-03-27 09:02:23 51°12.47 2°49.763 -999 0.050955 0.284988 -1.10504
2009-03-27 09:02:28 51°12.467 2°49.758 -999 0.049309 0.275674 -1.10504
2009-03-27 09:02:33 51°12.465 2°49.753 -999 0.049926 0.279297 -1.10504
2009-03-27 09:02:38 51°12.462 2°49.748 -999 0.050029 0.279786 -1.139864
2009-03-27 09:02:42 51°12.461 2°49.743 -999 0.047559 0.265604 -1.10504
2009-03-27 09:02:48 51°12.458 2°49.737 -999 0.047559 0.265604 -1.10504
2009-03-27 09:02:53 51°12.457 2°49.732 -999 0.044678 0.249157 -1.10504
2009-03-27 09:02:58 51°12.455 2°49.727 -999 0.045295 0.252753 -1.10504
2009-03-27 09:03:03 51°12.453 2°49.721 -999 0.043957 0.245143 -1.10504
2009-03-27 09:03:08 51°12.452 2°49.716 -999 0.044369 0.247486 -1.10504
2009-03-27 09:03:13 51°12.451 2°49.711 -999 0.043854 0.244596 -1.10504